Observation data for Menard on 02/24/2021      Previous  Date  Next       Current Mesonet Observations  Soil Data  Daily Summary Page  Observations in Plain Language
KMD1 240600Z 24004KT 15/10 A2993 RMK A01 T01510101  RH  072%=      5-min Rain = 0
KMD1 240601Z 25004KT 15/10 A2993 RMK A01 T01510102  RH  073%=      5-min Rain = 0
KMD1 240602Z 24003KT 15/10 A2993 RMK A01 T01510102  RH  072%=      5-min Rain = 0
KMD1 240603Z 22003KT 15/10 A2993 RMK A01 T01510102  RH  072%=      5-min Rain = 0
KMD1 240604Z 23003KT 15/10 A2993 RMK A01 T01510102  RH  072%=      5-min Rain = 0
KMD1 240605Z 24003KT 15/10 A2993 RMK A01 T01510101  RH  072%=      5-min Rain = 0
KMD1 240606Z 23004KT 15/10 A2993 RMK A01 T01500101  RH  072%=      5-min Rain = 0
KMD1 240607Z 23003KT 15/10 A2993 RMK A01 T01490099  RH  072%=      5-min Rain = 0
KMD1 240608Z 23004KT 15/10 A2993 RMK A01 T01470098  RH  073%=      5-min Rain = 0
KMD1 240609Z 23004KT 15/10 A2993 RMK A01 T01450099  RH  074%=      5-min Rain = 0
KMD1 240610Z 23003KT 15/10 A2993 RMK A01 T01450099  RH  074%=      5-min Rain = 0
KMD1 240611Z 23003KT 15/10 A2993 RMK A01 T01450100  RH  074%=      5-min Rain = 0
KMD1 240612Z 24004KT 15/10 A2993 RMK A01 T01450100  RH  074%=      5-min Rain = 0
KMD1 240613Z 23003KT 15/10 A2993 RMK A01 T01460101  RH  074%=      5-min Rain = 0
KMD1 240614Z 23003KT 15/10 A2993 RMK A01 T01470101  RH  074%=      5-min Rain = 0
KMD1 240615Z 23003KT 15/10 A2993 RMK A01 T01480101  RH  073%=      5-min Rain = 0
KMD1 240616Z 24003KT 15/10 A2993 RMK A01 T01490101  RH  073%=      5-min Rain = 0
KMD1 240617Z 22003KT 15/10 A2993 RMK A01 T01490101  RH  073%=      5-min Rain = 0
KMD1 240618Z 21002KT 15/10 A2993 RMK A01 T01490098  RH  071%=      5-min Rain = 0
KMD1 240619Z 23002KT 15/10 A2993 RMK A01 T01470098  RH  073%=      5-min Rain = 0
KMD1 240620Z 23003KT 15/10 A2993 RMK A01 T01460100  RH  074%=      5-min Rain = 0
KMD1 240621Z 22003KT 15/10 A2993 RMK A01 T01460100  RH  074%=      5-min Rain = 0
KMD1 240622Z 22002KT 15/10 A2993 RMK A01 T01460101  RH  074%=      5-min Rain = 0
KMD1 240623Z 22002KT 15/10 A2993 RMK A01 T01470101  RH  074%=      5-min Rain = 0
KMD1 240624Z 20003KT 15/10 A2993 RMK A01 T01480100  RH  073%=      5-min Rain = 0
KMD1 240625Z 21002KT 15/10 A2993 RMK A01 T01490100  RH  073%=      5-min Rain = 0
KMD1 240626Z 21003KT 15/10 A2993 RMK A01 T01490101  RH  073%=      5-min Rain = 0
KMD1 240627Z 21003KT 15/10 A2993 RMK A01 T01490100  RH  072%=      5-min Rain = 0
KMD1 240628Z 20003KT 15/10 A2993 RMK A01 T01500100  RH  072%=      5-min Rain = 0
KMD1 240629Z 21004KT 15/10 A2993 RMK A01 T01490101  RH  073%=      5-min Rain = 0
KMD1 240630Z 19004KT 15/10 A2993 RMK A01 T01510101  RH  072%=      5-min Rain = 0
KMD1 240631Z 19005KT 15/10 A2993 RMK A01 T01530102  RH  072%=      5-min Rain = 0
KMD1 240632Z 19004KT 16/10 A2993 RMK A01 T01550101  RH  070%=      5-min Rain = 0
KMD1 240633Z 20004KT 16/10 A2993 RMK A01 T01550101  RH  070%=      5-min Rain = 0
KMD1 240634Z 20003KT 16/10 A2993 RMK A01 T01550101  RH  070%=      5-min Rain = 0
KMD1 240635Z 20005KT 15/10 A2994 RMK A01 T01530100  RH  071%=      5-min Rain = 0
KMD1 240636Z 19005KT 15/10 A2994 RMK A01 T01530101  RH  071%=      5-min Rain = 0
KMD1 240637Z 20004KT 15/10 A2994 RMK A01 T01530101  RH  071%=      5-min Rain = 0
KMD1 240638Z 19004KT 15/10 A2994 RMK A01 T01540101  RH  070%=      5-min Rain = 0
KMD1 240639Z 19005KT 15/10 A2993 RMK A01 T01540101  RH  071%=      5-min Rain = 0
KMD1 240640Z 19005KT 15/10 A2993 RMK A01 T01530101  RH  071%=      5-min Rain = 0
KMD1 240641Z 19004KT 15/10 A2993 RMK A01 T01520101  RH  072%=      5-min Rain = 0
KMD1 240642Z 19005KT 15/10 A2993 RMK A01 T01520102  RH  072%=      5-min Rain = 0
KMD1 240643Z 20004KT 15/10 A2993 RMK A01 T01530102  RH  071%=      5-min Rain = 0
KMD1 240644Z 19004KT 16/10 A2993 RMK A01 T01550102  RH  071%=      5-min Rain = 0
KMD1 240645Z 18005KT 16/10 A2993 RMK A01 T01550102  RH  070%=      5-min Rain = 0
KMD1 240646Z 19005KT 16/10 A2993 RMK A01 T01550101  RH  070%=      5-min Rain = 0
KMD1 240647Z 19005KT 15/10 A2993 RMK A01 T01540101  RH  070%=      5-min Rain = 0
KMD1 240648Z 20005KT 15/10 A2993 RMK A01 T01540101  RH  071%=      5-min Rain = 0
KMD1 240649Z 21005KT 15/10 A2993 RMK A01 T01540101  RH  071%=      5-min Rain = 0
KMD1 240650Z 20005KT 15/10 A2993 RMK A01 T01520100  RH  071%=      5-min Rain = 0
KMD1 240651Z 20005KT 15/10 A2993 RMK A01 T01510101  RH  072%=      5-min Rain = 0
KMD1 240652Z 20005KT 15/10 A2993 RMK A01 T01510101  RH  072%=      5-min Rain = 0
KMD1 240653Z 21004KT 15/10 A2993 RMK A01 T01500100  RH  072%=      5-min Rain = 0
KMD1 240654Z 21006KT 15/10 A2993 RMK A01 T01490100  RH  072%=      5-min Rain = 0
KMD1 240655Z 20005KT 15/10 A2993 RMK A01 T01490100  RH  073%=      5-min Rain = 0
KMD1 240656Z 20004KT 15/10 A2993 RMK A01 T01490101  RH  073%=      5-min Rain = 0
KMD1 240657Z 20005KT 15/10 A2993 RMK A01 T01490100  RH  073%=      5-min Rain = 0
KMD1 240658Z 19004KT 15/10 A2993 RMK A01 T01470100  RH  073%=      5-min Rain = 0
KMD1 240659Z 19004KT 15/10 A2993 RMK A01 T01470100  RH  073%=      5-min Rain = 0
KMD1 240700Z 19004KT 15/10 A2993 RMK A01 T01470100  RH  073%=      5-min Rain = 0
KMD1 240701Z 20003KT 15/10 A2993 RMK A01 T01460099  RH  073%=      5-min Rain = 0
KMD1 240702Z 20003KT 15/10 A2993 RMK A01 T01450100  RH  074%=      5-min Rain = 0
KMD1 240703Z 21004KT 15/10 A2993 RMK A01 T01450100  RH  074%=      5-min Rain = 0
KMD1 240704Z 20004KT 15/10 A2993 RMK A01 T01450100  RH  074%=      5-min Rain = 0
KMD1 240705Z 20003KT 15/10 A2993 RMK A01 T01460100  RH  074%=      5-min Rain = 0
KMD1 240706Z 22003KT 15/10 A2993 RMK A01 T01460100  RH  074%=      5-min Rain = 0
KMD1 240707Z 23003KT 15/10 A2994 RMK A01 T01460100  RH  074%=      5-min Rain = 0
KMD1 240708Z 22003KT 15/10 A2994 RMK A01 T01460100  RH  074%=      5-min Rain = 0
KMD1 240709Z 24002KT 15/10 A2993 RMK A01 T01460099  RH  073%=      5-min Rain = 0
KMD1 240710Z 22002KT 15/10 A2994 RMK A01 T01450099  RH  074%=      5-min Rain = 0
KMD1 240711Z 23002KT 15/10 A2994 RMK A01 T01450100  RH  074%=      5-min Rain = 0
KMD1 240712Z 23002KT 15/10 A2993 RMK A01 T01450100  RH  074%=      5-min Rain = 0
KMD1 240713Z 22004KT 15/10 A2993 RMK A01 T01450100  RH  074%=      5-min Rain = 0
KMD1 240714Z 23002KT 15/10 A2993 RMK A01 T01460100  RH  074%=      5-min Rain = 0
KMD1 240715Z 22004KT 15/10 A2993 RMK A01 T01470100  RH  074%=      5-min Rain = 0
KMD1 240716Z 22005KT 15/10 A2993 RMK A01 T01470100  RH  074%=      5-min Rain = 0
KMD1 240717Z 22003KT 15/10 A2993 RMK A01 T01470100  RH  073%=      5-min Rain = 0
KMD1 240718Z 21004KT 15/10 A2993 RMK A01 T01470100  RH  074%=      5-min Rain = 0
KMD1 240719Z 21003KT 15/10 A2993 RMK A01 T01460100  RH  074%=      5-min Rain = 0
KMD1 240720Z 22003KT 15/10 A2993 RMK A01 T01450100  RH  074%=      5-min Rain = 0
KMD1 240721Z 22004KT 15/10 A2993 RMK A01 T01450101  RH  075%=      5-min Rain = 0
KMD1 240722Z 22004KT 15/10 A2994 RMK A01 T01450099  RH  074%=      5-min Rain = 0
KMD1 240723Z 22003KT 14/10 A2994 RMK A01 T01440099  RH  074%=      5-min Rain = 0
KMD1 240724Z 21003KT 14/10 A2993 RMK A01 T01440099  RH  075%=      5-min Rain = 0
KMD1 240725Z 22004KT 14/10 A2993 RMK A01 T01440100  RH  075%=      5-min Rain = 0
KMD1 240726Z 22004KT 14/10 A2993 RMK A01 T01440100  RH  075%=      5-min Rain = 0
KMD1 240727Z 21005KT 14/10 A2993 RMK A01 T01440099  RH  074%=      5-min Rain = 0
KMD1 240728Z 21004KT 14/10 A2993 RMK A01 T01440100  RH  075%=      5-min Rain = 0
KMD1 240729Z 21004KT 14/10 A2993 RMK A01 T01430099  RH  075%=      5-min Rain = 0
KMD1 240730Z 21004KT 14/10 A2993 RMK A01 T01420099  RH  075%=      5-min Rain = 0
KMD1 240731Z 20004KT 14/10 A2993 RMK A01 T01410097  RH  075%=      5-min Rain = 0
KMD1 240732Z 20004KT 14/10 A2993 RMK A01 T01400099  RH  076%=      5-min Rain = 0
KMD1 240733Z 21004KT 14/10 A2993 RMK A01 T01400100  RH  077%=      5-min Rain = 0
KMD1 240734Z 21005KT 14/10 A2993 RMK A01 T01410100  RH  076%=      5-min Rain = 0
KMD1 240735Z 21004KT 14/10 A2993 RMK A01 T01420099  RH  075%=      5-min Rain = 0
KMD1 240736Z 21003KT 14/10 A2993 RMK A01 T01410097  RH  075%=      5-min Rain = 0
KMD1 240737Z 21004KT 14/10 A2993 RMK A01 T01400098  RH  076%=      5-min Rain = 0
KMD1 240738Z 22005KT 14/10 A2993 RMK A01 T01400099  RH  076%=      5-min Rain = 0
KMD1 240739Z 21007KT 14/10 A2993 RMK A01 T01400100  RH  077%=      5-min Rain = 0
KMD1 240740Z 21006KT 14/10 A2993 RMK A01 T01420099  RH  075%=      5-min Rain = 0
KMD1 240741Z 21004KT 14/10 A2993 RMK A01 T01420100  RH  075%=      5-min Rain = 0
KMD1 240742Z 22005KT 14/10 A2993 RMK A01 T01410099  RH  076%=      5-min Rain = 0
KMD1 240743Z 22005KT 14/10 A2993 RMK A01 T01410100  RH  076%=      5-min Rain = 0
KMD1 240744Z 22005KT 14/10 A2993 RMK A01 T01420100  RH  076%=      5-min Rain = 0
KMD1 240745Z 22005KT 14/10 A2993 RMK A01 T01420099  RH  075%=      5-min Rain = 0
KMD1 240746Z 22005KT 14/10 A2993 RMK A01 T01420099  RH  076%=      5-min Rain = 0
KMD1 240747Z 21006KT 14/10 A2993 RMK A01 T01420100  RH  076%=      5-min Rain = 0
KMD1 240748Z 22006KT 14/10 A2993 RMK A01 T01410099  RH  076%=      5-min Rain = 0
KMD1 240749Z 22007KT 14/10 A2993 RMK A01 T01400100  RH  077%=      5-min Rain = 0
KMD1 240750Z 22007KT 14/10 A2993 RMK A01 T01420102  RH  077%=      5-min Rain = 0
KMD1 240751Z 22006KT 14/10 A2993 RMK A01 T01440101  RH  076%=      5-min Rain = 0
KMD1 240752Z 22008KT 14/10 A2993 RMK A01 T01440101  RH  075%=      5-min Rain = 0
KMD1 240753Z 22006KT 14/10 A2993 RMK A01 T01440102  RH  076%=      5-min Rain = 0
KMD1 240754Z 22006KT 14/10 A2994 RMK A01 T01440102  RH  076%=      5-min Rain = 0
KMD1 240755Z 23007KT 14/10 A2994 RMK A01 T01440102  RH  076%=      5-min Rain = 0
KMD1 240756Z 22006KT 15/10 A2994 RMK A01 T01450102  RH  076%=      5-min Rain = 0
KMD1 240757Z 22008KT 15/10 A2994 RMK A01 T01450102  RH  075%=      5-min Rain = 0
KMD1 240758Z 22006KT 15/10 A2994 RMK A01 T01470104  RH  075%=      5-min Rain = 0
KMD1 240759Z 22005KT 15/10 A2994 RMK A01 T01480103  RH  074%=      5-min Rain = 0
KMD1 240800Z 22005KT 15/10 A2994 RMK A01 T01470103  RH  075%=      5-min Rain = 0
KMD1 240801Z 21005KT 15/10 A2994 RMK A01 T01450102  RH  075%=      5-min Rain = 0
KMD1 240802Z 22005KT 15/10 A2994 RMK A01 T01450103  RH  076%=      5-min Rain = 0
KMD1 240803Z 22005KT 14/10 A2994 RMK A01 T01440102  RH  076%=      5-min Rain = 0
KMD1 240804Z 23005KT 14/10 A2994 RMK A01 T01430102  RH  076%=      5-min Rain = 0
KMD1 240805Z 23006KT 14/10 A2994 RMK A01 T01430103  RH  077%=      5-min Rain = 0
KMD1 240806Z 23005KT 14/10 A2994 RMK A01 T01430103  RH  077%=      5-min Rain = 0
KMD1 240807Z 23007KT 14/10 A2994 RMK A01 T01430104  RH  077%=      5-min Rain = 0
KMD1 240808Z 23006KT 15/11 A2994 RMK A01 T01460105  RH  076%=      5-min Rain = 0
KMD1 240809Z 23006KT 15/10 A2994 RMK A01 T01470104  RH  075%=      5-min Rain = 0
KMD1 240810Z 23006KT 15/10 A2994 RMK A01 T01470104  RH  075%=      5-min Rain = 0
KMD1 240811Z 23005KT 15/10 A2994 RMK A01 T01480104  RH  075%=      5-min Rain = 0
KMD1 240812Z 22006KT 15/10 A2994 RMK A01 T01480104  RH  075%=      5-min Rain = 0
KMD1 240813Z 24006KT 15/11 A2994 RMK A01 T01490105  RH  075%=      5-min Rain = 0
KMD1 240814Z 22009KT 15/11 A2994 RMK A01 T01480105  RH  075%=      5-min Rain = 0
KMD1 240815Z 23007KT 15/11 A2994 RMK A01 T01490105  RH  075%=      5-min Rain = 0
KMD1 240816Z 23005KT 15/11 A2994 RMK A01 T01490105  RH  075%=      5-min Rain = 0
KMD1 240817Z 23004KT 15/11 A2994 RMK A01 T01490105  RH  075%=      5-min Rain = 0
KMD1 240818Z 23004KT 15/11 A2994 RMK A01 T01480105  RH  075%=      5-min Rain = 0
KMD1 240819Z 24004KT 15/10 A2994 RMK A01 T01470104  RH  075%=      5-min Rain = 0
KMD1 240820Z 23003KT 15/10 A2994 RMK A01 T01470104  RH  076%=      5-min Rain = 0
KMD1 240821Z 24002KT 15/10 A2995 RMK A01 T01460104  RH  076%=      5-min Rain = 0
KMD1 240822Z 22003KT 15/10 A2995 RMK A01 T01450103  RH  076%=      5-min Rain = 0
KMD1 240823Z 24003KT 14/10 A2995 RMK A01 T01440103  RH  076%=      5-min Rain = 0
KMD1 240824Z 23004KT 14/10 A2995 RMK A01 T01430104  RH  077%=      5-min Rain = 0
KMD1 240825Z 23002KT 14/10 A2995 RMK A01 T01430104  RH  077%=      5-min Rain = 0
KMD1 240826Z 23003KT 14/10 A2995 RMK A01 T01440104  RH  077%=      5-min Rain = 0
KMD1 240827Z 25003KT 14/10 A2995 RMK A01 T01440104  RH  077%=      5-min Rain = 0
KMD1 240828Z 25003KT 14/10 A2995 RMK A01 T01430104  RH  077%=      5-min Rain = 0
KMD1 240829Z 26003KT 14/10 A2995 RMK A01 T01430104  RH  077%=      5-min Rain = 0
KMD1 240830Z 25003KT 14/11 A2995 RMK A01 T01430105  RH  078%=      5-min Rain = 0
KMD1 240831Z 25002KT 14/10 A2994 RMK A01 T01430104  RH  078%=      5-min Rain = 0
KMD1 240832Z 24002KT 14/10 A2994 RMK A01 T01430103  RH  077%=      5-min Rain = 0
KMD1 240833Z 25003KT 14/10 A2994 RMK A01 T01410102  RH  078%=      5-min Rain = 0
KMD1 240834Z 25004KT 14/10 A2994 RMK A01 T01400103  RH  078%=      5-min Rain = 0
KMD1 240835Z 25004KT 14/10 A2994 RMK A01 T01400104  RH  079%=      5-min Rain = 0
KMD1 240836Z 24004KT 14/10 A2995 RMK A01 T01400104  RH  079%=      5-min Rain = 0
KMD1 240837Z 25004KT 14/10 A2995 RMK A01 T01410104  RH  079%=      5-min Rain = 0
KMD1 240838Z 25004KT 14/10 A2995 RMK A01 T01400104  RH  079%=      5-min Rain = 0
KMD1 240839Z 25004KT 14/10 A2995 RMK A01 T01400103  RH  078%=      5-min Rain = 0
KMD1 240840Z 25004KT 14/10 A2995 RMK A01 T01400104  RH  079%=      5-min Rain = 0
KMD1 240841Z 24005KT 14/10 A2995 RMK A01 T01400104  RH  079%=      5-min Rain = 0
KMD1 240842Z 25005KT 14/10 A2995 RMK A01 T01400104  RH  079%=      5-min Rain = 0
KMD1 240843Z 24004KT 14/11 A2995 RMK A01 T01400105  RH  079%=      5-min Rain = 0
KMD1 240844Z 25004KT 14/10 A2995 RMK A01 T01400104  RH  078%=      5-min Rain = 0
KMD1 240845Z 24004KT 14/10 A2995 RMK A01 T01400104  RH  079%=      5-min Rain = 0
KMD1 240846Z 24004KT 14/11 A2995 RMK A01 T01400105  RH  079%=      5-min Rain = 0
KMD1 240847Z 24004KT 14/10 A2995 RMK A01 T01400104  RH  079%=      5-min Rain = 0
KMD1 240848Z 24004KT 14/10 A2995 RMK A01 T01390104  RH  079%=      5-min Rain = 0
KMD1 240849Z 24005KT 14/10 A2995 RMK A01 T01390104  RH  079%=      5-min Rain = 0
KMD1 240850Z 23005KT 14/10 A2994 RMK A01 T01390104  RH  079%=      5-min Rain = 0
KMD1 240851Z 23004KT 14/10 A2994 RMK A01 T01380104  RH  080%=      5-min Rain = 0
KMD1 240852Z 23005KT 14/11 A2994 RMK A01 T01380105  RH  080%=      5-min Rain = 0
KMD1 240853Z 23005KT 14/11 A2994 RMK A01 T01380105  RH  080%=      5-min Rain = 0
KMD1 240854Z 23005KT 14/11 A2994 RMK A01 T01390105  RH  080%=      5-min Rain = 0
KMD1 240855Z 23004KT 14/11 A2994 RMK A01 T01390105  RH  080%=      5-min Rain = 0
KMD1 240856Z 25004KT 14/11 A2995 RMK A01 T01390105  RH  080%=      5-min Rain = 0
KMD1 240857Z 25004KT 14/11 A2995 RMK A01 T01390105  RH  080%=      5-min Rain = 0
KMD1 240858Z 24005KT 14/11 A2995 RMK A01 T01380105  RH  080%=      5-min Rain = 0
KMD1 240859Z 24005KT 14/11 A2995 RMK A01 T01370105  RH  081%=      5-min Rain = 0
KMD1 240900Z 25006KT 14/11 A2994 RMK A01 T01370105  RH  081%=      5-min Rain = 0
KMD1 240901Z 24006KT 14/11 A2994 RMK A01 T01370106  RH  081%=      5-min Rain = 0
KMD1 240902Z 24005KT 14/11 A2994 RMK A01 T01380106  RH  081%=      5-min Rain = 0
KMD1 240903Z 24006KT 14/11 A2994 RMK A01 T01380106  RH  081%=      5-min Rain = 0
KMD1 240904Z 24005KT 14/11 A2994 RMK A01 T01380106  RH  081%=      5-min Rain = 0
KMD1 240905Z 25006KT 14/11 A2994 RMK A01 T01380106  RH  081%=      5-min Rain = 0
KMD1 240906Z 25006KT 14/11 A2995 RMK A01 T01380107  RH  082%=      5-min Rain = 0
KMD1 240907Z 24005KT 14/11 A2995 RMK A01 T01380106  RH  081%=      5-min Rain = 0
KMD1 240908Z 25005KT 14/11 A2995 RMK A01 T01390107  RH  081%=      5-min Rain = 0
KMD1 240909Z 25005KT 14/11 A2994 RMK A01 T01390107  RH  081%=      5-min Rain = 0
KMD1 240910Z 25006KT 14/11 A2994 RMK A01 T01390107  RH  081%=      5-min Rain = 0
KMD1 240911Z 25004KT 14/11 A2994 RMK A01 T01390108  RH  082%=      5-min Rain = 0
KMD1 240912Z 25006KT 14/11 A2995 RMK A01 T01390108  RH  082%=      5-min Rain = 0
KMD1 240913Z 25005KT 14/11 A2995 RMK A01 T01390108  RH  082%=      5-min Rain = 0
KMD1 240914Z 25006KT 14/11 A2995 RMK A01 T01380108  RH  082%=      5-min Rain = 0
KMD1 240915Z 25006KT 14/11 A2995 RMK A01 T01390110  RH  082%=      5-min Rain = 0
KMD1 240916Z 25005KT 14/11 A2995 RMK A01 T01400109  RH  082%=      5-min Rain = 0
KMD1 240917Z 25004KT 14/11 A2995 RMK A01 T01400109  RH  081%=      5-min Rain = 0
KMD1 240918Z 25006KT 14/11 A2995 RMK A01 T01390108  RH  082%=      5-min Rain = 0
KMD1 240919Z 24005KT 14/11 A2995 RMK A01 T01390109  RH  082%=      5-min Rain = 0
KMD1 240920Z 25006KT 14/11 A2995 RMK A01 T01390110  RH  083%=      5-min Rain = 0
KMD1 240921Z 24005KT 14/11 A2995 RMK A01 T01390110  RH  082%=      5-min Rain = 0
KMD1 240922Z 25003KT 14/11 A2995 RMK A01 T01400109  RH  082%=      5-min Rain = 0
KMD1 240923Z 25003KT 14/11 A2995 RMK A01 T01390109  RH  082%=      5-min Rain = 0
KMD1 240924Z 25005KT 14/11 A2995 RMK A01 T01380109  RH  083%=      5-min Rain = 0
KMD1 240925Z 26005KT 14/11 A2995 RMK A01 T01380111  RH  084%=      5-min Rain = 0
KMD1 240926Z 26006KT 14/11 A2995 RMK A01 T01380110  RH  083%=      5-min Rain = 0
KMD1 240927Z 27003KT 14/11 A2995 RMK A01 T01390111  RH  083%=      5-min Rain = 0
KMD1 240928Z 27003KT 14/11 A2995 RMK A01 T01390110  RH  083%=      5-min Rain = 0
KMD1 240929Z 27003KT 14/11 A2995 RMK A01 T01380106  RH  081%=      5-min Rain = 0
KMD1 240930Z 25003KT 14/11 A2995 RMK A01 T01360109  RH  084%=      5-min Rain = 0
KMD1 240931Z 26002KT 14/11 A2995 RMK A01 T01360110  RH  084%=      5-min Rain = 0
KMD1 240932Z 27002KT 14/11 A2995 RMK A01 T01360109  RH  084%=      5-min Rain = 0
KMD1 240933Z 25003KT 14/11 A2995 RMK A01 T01370111  RH  085%=      5-min Rain = 0
KMD1 240934Z 29002KT 14/11 A2995 RMK A01 T01360111  RH  085%=      5-min Rain = 0
KMD1 240935Z 26002KT 14/11 A2995 RMK A01 T01360109  RH  084%=      5-min Rain = 0
KMD1 240936Z 26002KT 13/11 A2995 RMK A01 T01340108  RH  084%=      5-min Rain = 0
KMD1 240937Z 27003KT 13/11 A2995 RMK A01 T01340111  RH  086%=      5-min Rain = 0
KMD1 240938Z 26002KT 14/11 A2995 RMK A01 T01350112  RH  086%=      5-min Rain = 0
KMD1 240939Z 25003KT 14/11 A2995 RMK A01 T01350112  RH  086%=      5-min Rain = 0
KMD1 240940Z 23004KT 14/11 A2995 RMK A01 T01360113  RH  086%=      5-min Rain = 0
KMD1 240941Z 24003KT 14/11 A2995 RMK A01 T01370114  RH  086%=      5-min Rain = 0
KMD1 240942Z 23003KT 14/11 A2995 RMK A01 T01380114  RH  085%=      5-min Rain = 0
KMD1 240943Z 23003KT 14/11 A2995 RMK A01 T01380113  RH  085%=      5-min Rain = 0
KMD1 240944Z 23005KT 14/11 A2995 RMK A01 T01380114  RH  086%=      5-min Rain = 0
KMD1 240945Z 23004KT 14/12 A2995 RMK A01 T01390117  RH  086%=      5-min Rain = 0
KMD1 240946Z 24004KT 14/12 A2995 RMK A01 T01400115  RH  085%=      5-min Rain = 0
KMD1 240947Z 25003KT 14/11 A2995 RMK A01 T01390114  RH  084%=      5-min Rain = 0
KMD1 240948Z 24003KT 14/11 A2994 RMK A01 T01380114  RH  085%=      5-min Rain = 0
KMD1 240949Z 24004KT 14/11 A2994 RMK A01 T01380114  RH  085%=      5-min Rain = 0
KMD1 240950Z 25003KT 14/11 A2994 RMK A01 T01370113  RH  085%=      5-min Rain = 0
KMD1 240951Z 24003KT 14/11 A2994 RMK A01 T01360114  RH  087%=      5-min Rain = 0
KMD1 240952Z 25004KT 14/11 A2994 RMK A01 T01370114  RH  086%=      5-min Rain = 0
KMD1 240953Z 25004KT 14/11 A2994 RMK A01 T01360114  RH  086%=      5-min Rain = 0
KMD1 240954Z 23005KT 14/11 A2994 RMK A01 T01360114  RH  087%=      5-min Rain = 0
KMD1 240955Z 23004KT 14/12 A2994 RMK A01 T01360115  RH  087%=      5-min Rain = 0
KMD1 240956Z 23005KT 14/12 A2994 RMK A01 T01360115  RH  087%=      5-min Rain = 0
KMD1 240957Z 23005KT 14/12 A2994 RMK A01 T01350115  RH  087%=      5-min Rain = 0
KMD1 240958Z 23004KT 14/12 A2994 RMK A01 T01350115  RH  088%=      5-min Rain = 0
KMD1 240959Z 23005KT 14/12 A2994 RMK A01 T01350115  RH  087%=      5-min Rain = 0
KMD1 241000Z 24005KT 14/12 A2994 RMK A01 T01350117  RH  089%=      5-min Rain = 0
KMD1 241001Z 23005KT 14/12 A2994 RMK A01 T01360116  RH  088%=      5-min Rain = 0
KMD1 241002Z 23007KT 14/12 A2994 RMK A01 T01350117  RH  089%=      5-min Rain = 0
KMD1 241003Z 24005KT 14/12 A2994 RMK A01 T01360118  RH  089%=      5-min Rain = 0
KMD1 241004Z 23004KT 14/12 A2994 RMK A01 T01360116  RH  088%=      5-min Rain = 0
KMD1 241005Z 23005KT 14/12 A2994 RMK A01 T01360117  RH  089%=      5-min Rain = 0
KMD1 241006Z 23004KT 14/12 A2994 RMK A01 T01350117  RH  089%=      5-min Rain = 0
KMD1 241007Z 24004KT 14/12 A2994 RMK A01 T01350118  RH  089%=      5-min Rain = 0
KMD1 241008Z 24004KT 14/12 A2994 RMK A01 T01350119  RH  090%=      5-min Rain = 0
KMD1 241009Z 23006KT 14/12 A2994 RMK A01 T01350119  RH  090%=      5-min Rain = 0
KMD1 241010Z 25004KT 14/12 A2994 RMK A01 T01360120  RH  090%=      5-min Rain = 0
KMD1 241011Z 24004KT 14/12 A2994 RMK A01 T01360118  RH  089%=      5-min Rain = 0
KMD1 241012Z 24004KT 14/12 A2994 RMK A01 T01360119  RH  090%=      5-min Rain = 0
KMD1 241013Z 25004KT 14/12 A2994 RMK A01 T01360119  RH  089%=      5-min Rain = 0
KMD1 241014Z 24003KT 14/12 A2994 RMK A01 T01350118  RH  089%=      5-min Rain = 0
KMD1 241015Z 23004KT 13/12 A2994 RMK A01 T01340118  RH  090%=      5-min Rain = 0
KMD1 241016Z 24003KT 14/12 A2994 RMK A01 T01350120  RH  091%=      5-min Rain = 0
KMD1 241017Z 24003KT 14/12 A2994 RMK A01 T01350121  RH  091%=      5-min Rain = 0
KMD1 241018Z 24003KT 14/12 A2994 RMK A01 T01360120  RH  090%=      5-min Rain = 0
KMD1 241019Z 24005KT 14/12 A2994 RMK A01 T01350120  RH  091%=      5-min Rain = 0
KMD1 241020Z 24004KT 14/12 A2994 RMK A01 T01360123  RH  092%=      5-min Rain = 0
KMD1 241021Z 24004KT 14/12 A2994 RMK A01 T01370123  RH  091%=      5-min Rain = 0
KMD1 241022Z 24005KT 14/12 A2994 RMK A01 T01370122  RH  091%=      5-min Rain = 0
KMD1 241023Z 24005KT 14/12 A2994 RMK A01 T01380124  RH  091%=      5-min Rain = 0
KMD1 241024Z 25004KT 14/12 A2994 RMK A01 T01380123  RH  090%=      5-min Rain = 0
KMD1 241025Z 25005KT 14/12 A2994 RMK A01 T01380123  RH  091%=      5-min Rain = 0
KMD1 241026Z 24005KT 14/12 A2994 RMK A01 T01380123  RH  091%=      5-min Rain = 0
KMD1 241027Z 24005KT 14/12 A2994 RMK A01 T01380124  RH  091%=      5-min Rain = 0
KMD1 241028Z 23005KT 14/12 A2994 RMK A01 T01380123  RH  090%=      5-min Rain = 0
KMD1 241029Z 24004KT 14/12 A2994 RMK A01 T01380123  RH  091%=      5-min Rain = 0
KMD1 241030Z 24005KT 14/12 A2994 RMK A01 T01380123  RH  091%=      5-min Rain = 0
KMD1 241031Z 23005KT 14/12 A2995 RMK A01 T01370123  RH  091%=      5-min Rain = 0
KMD1 241032Z 23005KT 14/12 A2995 RMK A01 T01370123  RH  091%=      5-min Rain = 0
KMD1 241033Z 23005KT 14/12 A2995 RMK A01 T01370124  RH  091%=      5-min Rain = 0
KMD1 241034Z 23005KT 14/12 A2994 RMK A01 T01370123  RH  092%=      5-min Rain = 0
KMD1 241035Z 23005KT 14/12 A2995 RMK A01 T01370124  RH  092%=      5-min Rain = 0
KMD1 241036Z 23005KT 14/12 A2995 RMK A01 T01370124  RH  092%=      5-min Rain = 0
KMD1 241037Z 23005KT 14/12 A2995 RMK A01 T01370124  RH  092%=      5-min Rain = 0
KMD1 241038Z 24004KT 14/12 A2995 RMK A01 T01370123  RH  092%=      5-min Rain = 0
KMD1 241039Z 24004KT 14/12 A2995 RMK A01 T01360124  RH  092%=      5-min Rain = 0
KMD1 241040Z 24004KT 14/12 A2995 RMK A01 T01360123  RH  092%=      5-min Rain = 0
KMD1 241041Z 24003KT 14/12 A2995 RMK A01 T01360123  RH  092%=      5-min Rain = 0
KMD1 241042Z 24003KT 14/12 A2995 RMK A01 T01350123  RH  092%=      5-min Rain = 0
KMD1 241043Z 24003KT 14/12 A2995 RMK A01 T01350124  RH  093%=      5-min Rain = 0
KMD1 241044Z 25004KT 14/12 A2995 RMK A01 T01350124  RH  093%=      5-min Rain = 0
KMD1 241045Z 26004KT 14/12 A2995 RMK A01 T01350123  RH  093%=      5-min Rain = 0
KMD1 241046Z 26003KT 13/12 A2995 RMK A01 T01330119  RH  091%=      5-min Rain = 0
KMD1 241047Z 25003KT 13/12 A2995 RMK A01 T01320121  RH  093%=      5-min Rain = 0
KMD1 241048Z 24003KT 13/12 A2995 RMK A01 T01320123  RH  094%=      5-min Rain = 0
KMD1 241049Z 24003KT 13/12 A2995 RMK A01 T01330124  RH  094%=      5-min Rain = 0
KMD1 241050Z 24004KT 13/12 A2995 RMK A01 T01330124  RH  094%=      5-min Rain = 0
KMD1 241051Z 25004KT 13/13 A2995 RMK A01 T01340125  RH  094%=      5-min Rain = 0
KMD1 241052Z 25004KT 14/12 A2995 RMK A01 T01350124  RH  093%=      5-min Rain = 0
KMD1 241053Z 25004KT 14/13 A2995 RMK A01 T01350125  RH  094%=      5-min Rain = 0
KMD1 241054Z 25004KT 14/13 A2995 RMK A01 T01350125  RH  094%=      5-min Rain = 0
KMD1 241055Z 24004KT 13/13 A2995 RMK A01 T01340125  RH  094%=      5-min Rain = 0
KMD1 241056Z 23004KT 13/12 A2995 RMK A01 T01340123  RH  093%=      5-min Rain = 0
KMD1 241057Z 23004KT 13/12 A2995 RMK A01 T01330124  RH  094%=      5-min Rain = 0
KMD1 241058Z 23005KT 13/13 A2995 RMK A01 T01340125  RH  095%=      5-min Rain = 0
KMD1 241059Z 23004KT 13/13 A2995 RMK A01 T01330126  RH  095%=      5-min Rain = 0
KMD1 241100Z 24004KT 13/13 A2995 RMK A01 T01340125  RH  095%=      5-min Rain = 0
KMD1 241101Z 24005KT 13/13 A2995 RMK A01 T01340125  RH  095%=      5-min Rain = 0
KMD1 241102Z 23005KT 13/13 A2995 RMK A01 T01340126  RH  095%=      5-min Rain = 0
KMD1 241103Z 24005KT 13/13 A2995 RMK A01 T01340126  RH  095%=      5-min Rain = 0
KMD1 241104Z 24004KT 14/13 A2995 RMK A01 T01350126  RH  095%=      5-min Rain = 0
KMD1 241105Z 24004KT 13/13 A2995 RMK A01 T01340125  RH  094%=      5-min Rain = 0
KMD1 241106Z 24005KT 13/12 A2995 RMK A01 T01330124  RH  094%=      5-min Rain = 0
KMD1 241107Z 24004KT 13/12 A2995 RMK A01 T01330124  RH  094%=      5-min Rain = 0
KMD1 241108Z 25004KT 13/12 A2995 RMK A01 T01300119  RH  093%=      5-min Rain = 0
KMD1 241109Z 25004KT 13/12 A2995 RMK A01 T01290120  RH  094%=      5-min Rain = 0
KMD1 241110Z 25004KT 13/12 A2995 RMK A01 T01290119  RH  094%=      5-min Rain = 0
KMD1 241111Z 25004KT 13/12 A2995 RMK A01 T01280120  RH  095%=      5-min Rain = 0
KMD1 241112Z 25005KT 13/12 A2995 RMK A01 T01280120  RH  095%=      5-min Rain = 0
KMD1 241113Z 25004KT 13/12 A2995 RMK A01 T01270118  RH  094%=      5-min Rain = 0
KMD1 241114Z 25004KT 12/11 A2995 RMK A01 T01240114  RH  094%=      5-min Rain = 0
KMD1 241115Z 25004KT 12/11 A2995 RMK A01 T01220114  RH  095%=      5-min Rain = 0
KMD1 241116Z 26004KT 12/12 A2995 RMK A01 T01210116  RH  096%=      5-min Rain = 0
KMD1 241117Z 25004KT 12/12 A2995 RMK A01 T01220118  RH  097%=      5-min Rain = 0
KMD1 241118Z 25004KT 12/12 A2995 RMK A01 T01230120  RH  098%=      5-min Rain = 0
KMD1 241119Z 26004KT 12/12 A2995 RMK A01 T01230120  RH  098%=      5-min Rain = 0
KMD1 241120Z 26005KT 12/12 A2996 RMK A01 T01230120  RH  098%=      5-min Rain = 0
KMD1 241121Z 26005KT 12/12 A2996 RMK A01 T01230120  RH  098%=      5-min Rain = 0
KMD1 241122Z 26005KT 12/12 A2996 RMK A01 T01230121  RH  098%=      5-min Rain = 0
KMD1 241123Z 26005KT 12/12 A2996 RMK A01 T01240121  RH  098%=      5-min Rain = 0
KMD1 241124Z 26005KT 12/12 A2996 RMK A01 T01230120  RH  098%=      5-min Rain = 0
KMD1 241125Z 26005KT 12/12 A2996 RMK A01 T01230120  RH  098%=      5-min Rain = 0
KMD1 241126Z 26004KT 12/12 A2996 RMK A01 T01220118  RH  097%=      5-min Rain = 0
KMD1 241127Z 25004KT 12/12 A2996 RMK A01 T01210117  RH  097%=      5-min Rain = 0
KMD1 241128Z 25004KT 12/12 A2996 RMK A01 T01210117  RH  098%=      5-min Rain = 0
KMD1 241129Z 26004KT 12/12 A2996 RMK A01 T01210117  RH  098%=      5-min Rain = 0
KMD1 241130Z 25004KT 12/12 A2996 RMK A01 T01210117  RH  098%=      5-min Rain = 0
KMD1 241131Z 25004KT 12/12 A2996 RMK A01 T01200117  RH  098%=      5-min Rain = 0
KMD1 241132Z 25004KT 12/12 A2996 RMK A01 T01200117  RH  098%=      5-min Rain = 0
KMD1 241133Z 26003KT 12/12 A2996 RMK A01 T01190116  RH  098%=      5-min Rain = 0
KMD1 241134Z 26003KT 12/12 A2996 RMK A01 T01190116  RH  098%=      5-min Rain = 0
KMD1 241135Z 26003KT 12/12 A2996 RMK A01 T01180115  RH  098%=      5-min Rain = 0
KMD1 241136Z 26003KT 12/12 A2996 RMK A01 T01170115  RH  099%=      5-min Rain = 0
KMD1 241137Z 26003KT 12/12 A2996 RMK A01 T01170115  RH  099%=      5-min Rain = 0
KMD1 241138Z 26003KT 12/11 A2996 RMK A01 T01160114  RH  098%=      5-min Rain = 0
KMD1 241139Z 26003KT 12/11 A2996 RMK A01 T01150114  RH  099%=      5-min Rain = 0
KMD1 241140Z 26003KT 12/11 A2996 RMK A01 T01150113  RH  099%=      5-min Rain = 0
KMD1 241141Z 26003KT 11/11 A2996 RMK A01 T01140113  RH  099%=      5-min Rain = 0
KMD1 241142Z 25003KT 11/11 A2996 RMK A01 T01140114  RH  100%=      5-min Rain = 0
KMD1 241143Z 26003KT 11/11 A2996 RMK A01 T01140114  RH  100%=      5-min Rain = 0
KMD1 241144Z 26002KT 12/12 A2996 RMK A01 T01150115  RH  100%=      5-min Rain = 0
KMD1 241145Z 26002KT 12/12 A2997 RMK A01 T01150115  RH  100%=      5-min Rain = 0
KMD1 241146Z 26002KT 12/12 A2997 RMK A01 T01160116  RH  100%=      5-min Rain = 0
KMD1 241147Z 26002KT 12/12 A2997 RMK A01 T01160116  RH  100%=      5-min Rain = 0
KMD1 241148Z 26002KT 12/12 A2997 RMK A01 T01160116  RH  100%=      5-min Rain = 0
KMD1 241149Z 27002KT 12/12 A2997 RMK A01 T01160116  RH  100%=      5-min Rain = 0
KMD1 241150Z 27002KT 12/12 A2997 RMK A01 T01160116  RH  100%=      5-min Rain = 0
KMD1 241151Z 27002KT 12/12 A2997 RMK A01 T01150115  RH  100%=      5-min Rain = 0
KMD1 241152Z 27002KT 12/12 A2997 RMK A01 T01150115  RH  100%=      5-min Rain = 0
KMD1 241153Z 27001KT 12/12 A2997 RMK A01 T01150115  RH  100%=      5-min Rain = 0
KMD1 241154Z 27002KT 12/12 A2997 RMK A01 T01150115  RH  100%=      5-min Rain = 0
KMD1 241155Z 27001KT 12/12 A2997 RMK A01 T01150115  RH  100%=      5-min Rain = 0
KMD1 241156Z 27001KT 12/12 A2997 RMK A01 T01160116  RH  100%=      5-min Rain = 0
KMD1 241157Z 27001KT 12/12 A2997 RMK A01 T01160116  RH  100%=      5-min Rain = 0
KMD1 241158Z 27001KT 12/12 A2997 RMK A01 T01170117  RH  100%=      5-min Rain = 0
KMD1 241159Z 27001KT 12/12 A2997 RMK A01 T01170117  RH  100%=      5-min Rain = 0
KMD1 241200Z 29001KT 12/12 A2997 RMK A01 T01160116  RH  100%=      5-min Rain = 0
KMD1 241201Z 29001KT 12/12 A2997 RMK A01 T01150115  RH  100%=      5-min Rain = 0
KMD1 241202Z 29001KT 12/12 A2997 RMK A01 T01150115  RH  100%=      5-min Rain = 0
KMD1 241203Z 28001KT 12/12 A2997 RMK A01 T01150115  RH  100%=      5-min Rain = 0
KMD1 241204Z 29001KT 11/11 A2997 RMK A01 T01140114  RH  100%=      5-min Rain = 0
KMD1 241205Z 29000KT 11/11 A2997 RMK A01 T01110111  RH  100%=      5-min Rain = 0
KMD1 241206Z 29001KT 11/11 A2997 RMK A01 T01100110  RH  100%=      5-min Rain = 0
KMD1 241207Z 29001KT 11/11 A2997 RMK A01 T01060106  RH  100%=      5-min Rain = 0
KMD1 241208Z 29000KT 10/10 A2997 RMK A01 T01020102  RH  100%=      5-min Rain = 0
KMD1 241209Z 29001KT 10/10 A2997 RMK A01 T01010101  RH  100%=      5-min Rain = 0
KMD1 241210Z 28001KT 10/10 A2997 RMK A01 T01020102  RH  100%=      5-min Rain = 0
KMD1 241211Z 29001KT 10/10 A2997 RMK A01 T01020102  RH  100%=      5-min Rain = 0
KMD1 241212Z 28001KT 10/10 A2997 RMK A01 T01030103  RH  100%=      5-min Rain = 0
KMD1 241213Z 28001KT 10/10 A2997 RMK A01 T01040104  RH  100%=      5-min Rain = 0
KMD1 241214Z 27001KT 10/10 A2997 RMK A01 T01040104  RH  100%=      5-min Rain = 0
KMD1 241215Z 27001KT 11/11 A2997 RMK A01 T01050105  RH  100%=      5-min Rain = 0
KMD1 241216Z 27001KT 11/11 A2997 RMK A01 T01050105  RH  100%=      5-min Rain = 0
KMD1 241217Z 27001KT 11/11 A2997 RMK A01 T01050105  RH  100%=      5-min Rain = 0
KMD1 241218Z 27001KT 11/10 A2997 RMK A01 T01050104  RH  100%=      5-min Rain = 0
KMD1 241219Z 27001KT 10/10 A2997 RMK A01 T01040104  RH  100%=      5-min Rain = 0
KMD1 241220Z 27001KT 10/10 A2997 RMK A01 T01040104  RH  100%=      5-min Rain = 0
KMD1 241221Z 27001KT 10/10 A2997 RMK A01 T01030103  RH  100%=      5-min Rain = 0
KMD1 241222Z 27001KT 10/10 A2997 RMK A01 T01020102  RH  100%=      5-min Rain = 0
KMD1 241223Z 26002KT 10/10 A2997 RMK A01 T01010101  RH  100%=      5-min Rain = 0
KMD1 241224Z 26002KT 10/10 A2997 RMK A01 T01010101  RH  100%=      5-min Rain = 0
KMD1 241225Z 26002KT 10/10 A2997 RMK A01 T01000100  RH  100%=      5-min Rain = 0
KMD1 241226Z 26002KT 10/10 A2997 RMK A01 T01000100  RH  100%=      5-min Rain = 0
KMD1 241227Z 25002KT 10/10 A2997 RMK A01 T00990099  RH  100%=      5-min Rain = 0
KMD1 241228Z 25002KT 10/10 A2998 RMK A01 T01000100  RH  100%=      5-min Rain = 0
KMD1 241229Z 25002KT 10/10 A2998 RMK A01 T01010101  RH  100%=      5-min Rain = 0
KMD1 241230Z 24002KT 10/10 A2998 RMK A01 T01020102  RH  100%=      5-min Rain = 0
KMD1 241231Z 24002KT 10/10 A2998 RMK A01 T01010101  RH  100%=      5-min Rain = 0
KMD1 241232Z 24002KT 10/10 A2998 RMK A01 T00990099  RH  100%=      5-min Rain = 0
KMD1 241233Z 24002KT 10/10 A2998 RMK A01 T00970097  RH  100%=      5-min Rain = 0
KMD1 241234Z 24002KT 10/10 A2998 RMK A01 T00960096  RH  100%=      5-min Rain = 0
KMD1 241235Z 24002KT 10/10 A2997 RMK A01 T00960096  RH  100%=      5-min Rain = 0
KMD1 241236Z 23002KT 10/10 A2997 RMK A01 T00960096  RH  100%=      5-min Rain = 0
KMD1 241237Z 23002KT 09/09 A2997 RMK A01 T00930093  RH  100%=      5-min Rain = 0
KMD1 241238Z 23002KT 09/09 A2997 RMK A01 T00920092  RH  100%=      5-min Rain = 0
KMD1 241239Z 23002KT 09/09 A2997 RMK A01 T00910091  RH  100%=      5-min Rain = 0
KMD1 241240Z 23002KT 09/09 A2997 RMK A01 T00880088  RH  100%=      5-min Rain = 0
KMD1 241241Z 23002KT 09/09 A2997 RMK A01 T00870086  RH  100%=      5-min Rain = 0
KMD1 241242Z 23002KT 09/09 A2997 RMK A01 T00860086  RH  100%=      5-min Rain = 0
KMD1 241243Z 23002KT 09/09 A2997 RMK A01 T00850085  RH  100%=      5-min Rain = 0
KMD1 241244Z 23002KT 09/09 A2998 RMK A01 T00850085  RH  100%=      5-min Rain = 0
KMD1 241245Z 23002KT 08/08 A2998 RMK A01 T00840084  RH  100%=      5-min Rain = 0
KMD1 241246Z 23002KT 08/08 A2998 RMK A01 T00830083  RH  100%=      5-min Rain = 0
KMD1 241247Z 23002KT 08/08 A2998 RMK A01 T00830083  RH  100%=      5-min Rain = 0
KMD1 241248Z 23002KT 08/08 A2998 RMK A01 T00820082  RH  100%=      5-min Rain = 0
KMD1 241249Z 22002KT 08/08 A2998 RMK A01 T00810081  RH  100%=      5-min Rain = 0
KMD1 241250Z 22002KT 08/08 A2998 RMK A01 T00810081  RH  100%=      5-min Rain = 0
KMD1 241251Z 22002KT 08/08 A2998 RMK A01 T00810080  RH  100%=      5-min Rain = 0
KMD1 241252Z 23002KT 08/08 A2998 RMK A01 T00790079  RH  100%=      5-min Rain = 0
KMD1 241253Z 23002KT 08/08 A2998 RMK A01 T00770077  RH  100%=      5-min Rain = 0
KMD1 241254Z 23002KT 08/08 A2998 RMK A01 T00760076  RH  100%=      5-min Rain = 0
KMD1 241255Z 23002KT 08/08 A2998 RMK A01 T00750075  RH  100%=      5-min Rain = 0
KMD1 241256Z 23002KT 08/08 A2998 RMK A01 T00760076  RH  100%=      5-min Rain = 0
KMD1 241257Z 23002KT 08/08 A2998 RMK A01 T00770076  RH  100%=      5-min Rain = 0
KMD1 241258Z 23002KT 08/08 A2998 RMK A01 T00770077  RH  100%=      5-min Rain = 0
KMD1 241259Z 23001KT 08/08 A2998 RMK A01 T00770077  RH  100%=      5-min Rain = 0
KMD1 241300Z 23001KT 08/08 A2998 RMK A01 T00770077  RH  100%=      5-min Rain = 0
KMD1 241301Z 23001KT 08/08 A2998 RMK A01 T00760076  RH  100%=      5-min Rain = 0
KMD1 241302Z 23000KT 08/08 A2998 RMK A01 T00780078  RH  100%=      5-min Rain = 0
KMD1 241303Z 23000KT 08/08 A2998 RMK A01 T00760076  RH  100%=      5-min Rain = 0
KMD1 241304Z 00000KT 07/07 A2999 RMK A01 T00740074  RH  100%=      5-min Rain = 0
KMD1 241305Z 33000KT 07/07 A2999 RMK A01 T00710071  RH  100%=      5-min Rain = 0
KMD1 241306Z 35001KT 07/07 A2999 RMK A01 T00700070  RH  100%=      5-min Rain = 0
KMD1 241307Z 34001KT 07/07 A2999 RMK A01 T00690069  RH  100%=      5-min Rain = 0
KMD1 241308Z 34001KT 07/07 A2999 RMK A01 T00700070  RH  100%=      5-min Rain = 0
KMD1 241309Z 32001KT 07/07 A2999 RMK A01 T00730073  RH  100%=      5-min Rain = 0
KMD1 241310Z 32001KT 08/08 A2999 RMK A01 T00770077  RH  100%=      5-min Rain = 0
KMD1 241311Z 28000KT 08/08 A2999 RMK A01 T00790079  RH  100%=      5-min Rain = 0
KMD1 241312Z 25000KT 08/08 A2999 RMK A01 T00810081  RH  100%=      5-min Rain = 0
KMD1 241313Z 26000KT 08/08 A2999 RMK A01 T00840084  RH  100%=      5-min Rain = 0
KMD1 241314Z 29000KT 09/09 A2999 RMK A01 T00890089  RH  100%=      5-min Rain = 0
KMD1 241315Z 30000KT 09/09 A2999 RMK A01 T00910091  RH  100%=      5-min Rain = 0
KMD1 241316Z 30000KT 09/09 A30 RMK A01 T00910091  RH  100%=      5-min Rain = 0
KMD1 241317Z 00000KT 09/09 A30 RMK A01 T00900090  RH  100%=      5-min Rain = 0
KMD1 241318Z 00000KT 09/09 A30 RMK A01 T00850085  RH  100%=      5-min Rain = 0
KMD1 241319Z 31000KT 08/08 A30 RMK A01 T00820082  RH  100%=      5-min Rain = 0
KMD1 241320Z 31000KT 08/08 A30 RMK A01 T00830083  RH  100%=      5-min Rain = 0
KMD1 241321Z 31001KT 09/09 A30 RMK A01 T00860085  RH  100%=      5-min Rain = 0
KMD1 241322Z 30001KT 09/09 A30 RMK A01 T00890089  RH  100%=      5-min Rain = 0
KMD1 241323Z 30001KT 09/09 A30 RMK A01 T00920092  RH  100%=      5-min Rain = 0
KMD1 241324Z 31001KT 09/09 A30 RMK A01 T00940094  RH  100%=      5-min Rain = 0
KMD1 241325Z 30000KT 09/09 A30 RMK A01 T00940094  RH  100%=      5-min Rain = 0
KMD1 241326Z 00000KT 09/09 A30 RMK A01 T00930093  RH  100%=      5-min Rain = 0
KMD1 241327Z 30001KT 09/09 A30 RMK A01 T00900090  RH  100%=      5-min Rain = 0
KMD1 241328Z 28001KT 09/09 A30 RMK A01 T00860086  RH  100%=      5-min Rain = 0
KMD1 241329Z 26001KT 08/08 A30 RMK A01 T00840084  RH  100%=      5-min Rain = 0
KMD1 241330Z 24002KT 08/08 A30 RMK A01 T00830083  RH  100%=      5-min Rain = 0
KMD1 241331Z 24002KT 08/08 A30 RMK A01 T00830083  RH  100%=      5-min Rain = 0
KMD1 241332Z 24002KT 08/08 A30 RMK A01 T00830083  RH  100%=      5-min Rain = 0
KMD1 241333Z 24001KT 08/08 A30 RMK A01 T00820082  RH  100%=      5-min Rain = 0
KMD1 241334Z 26001KT 08/08 A30 RMK A01 T00760076  RH  100%=      5-min Rain = 0
KMD1 241335Z 26000KT 07/07 A30 RMK A01 T00710071  RH  100%=      5-min Rain = 0
KMD1 241336Z 00000KT 07/07 A30 RMK A01 T00700069  RH  100%=      5-min Rain = 0
KMD1 241337Z 00000KT 07/07 A30 RMK A01 T00690069  RH  100%=      5-min Rain = 0
KMD1 241338Z 33000KT 07/07 A30 RMK A01 T00680068  RH  100%=      5-min Rain = 0
KMD1 241339Z 33001KT 06/06 A30 RMK A01 T00640064  RH  100%=      5-min Rain = 0
KMD1 241340Z 32000KT 06/06 A30 RMK A01 T00630063  RH  100%=      5-min Rain = 0
KMD1 241341Z 31001KT 06/06 A30 RMK A01 T00630063  RH  100%=      5-min Rain = 0
KMD1 241342Z 33001KT 06/06 A30 RMK A01 T00620062  RH  100%=      5-min Rain = 0
KMD1 241343Z 34003KT 06/06 A3001 RMK A01 T00620062  RH  100%=      5-min Rain = 0
KMD1 241344Z 34003KT 06/06 A3001 RMK A01 T00630063  RH  100%=      5-min Rain = 0
KMD1 241345Z 33001KT 07/07 A3001 RMK A01 T00680068  RH  100%=      5-min Rain = 0
KMD1 241346Z 30001KT 07/07 A30 RMK A01 T00730073  RH  100%=      5-min Rain = 0
KMD1 241347Z 00000KT 08/08 A30 RMK A01 T00760076  RH  100%=      5-min Rain = 0
KMD1 241348Z 32001KT 08/08 A3001 RMK A01 T00770077  RH  100%=      5-min Rain = 0
KMD1 241349Z 33003KT 08/08 A3001 RMK A01 T00800079  RH  100%=      5-min Rain = 0
KMD1 241350Z 30001KT 08/08 A3001 RMK A01 T00830083  RH  100%=      5-min Rain = 0
KMD1 241351Z 21003KT 09/09 A3001 RMK A01 T00860086  RH  100%=      5-min Rain = 0
KMD1 241352Z 21004KT 09/09 A3001 RMK A01 T00850085  RH  100%=      5-min Rain = 0
KMD1 241353Z 26002KT 09/09 A3001 RMK A01 T00850085  RH  100%=      5-min Rain = 0
KMD1 241354Z 33002KT 09/09 A3001 RMK A01 T00850085  RH  100%=      5-min Rain = 0
KMD1 241355Z 34002KT 09/09 A3001 RMK A01 T00870087  RH  100%=      5-min Rain = 0
KMD1 241356Z 31000KT 09/09 A3001 RMK A01 T00900090  RH  100%=      5-min Rain = 0
KMD1 241357Z 23001KT 09/09 A3001 RMK A01 T00910091  RH  100%=      5-min Rain = 0
KMD1 241358Z 21001KT 09/09 A3001 RMK A01 T00890089  RH  100%=      5-min Rain = 0
KMD1 241359Z 23002KT 09/09 A3001 RMK A01 T00870087  RH  100%=      5-min Rain = 0
KMD1 241400Z 22002KT 09/09 A3001 RMK A01 T00850085  RH  100%=      5-min Rain = 0
KMD1 241401Z 22002KT 08/08 A3001 RMK A01 T00830083  RH  100%=      5-min Rain = 0
KMD1 241402Z 22001KT 08/08 A3002 RMK A01 T00820082  RH  100%=      5-min Rain = 0
KMD1 241403Z 22000KT 08/08 A3002 RMK A01 T00820082  RH  100%=      5-min Rain = 0
KMD1 241404Z 35002KT 08/08 A3002 RMK A01 T00810081  RH  100%=      5-min Rain = 0
KMD1 241405Z 36003KT 08/08 A3002 RMK A01 T00810081  RH  100%=      5-min Rain = 0
KMD1 241406Z 35001KT 08/08 A3002 RMK A01 T00810081  RH  100%=      5-min Rain = 0
KMD1 241407Z 18000KT 08/08 A3002 RMK A01 T00830082  RH  100%=      5-min Rain = 0
KMD1 241408Z 18002KT 08/08 A3002 RMK A01 T00830083  RH  100%=      5-min Rain = 0
KMD1 241409Z 19001KT 08/08 A3002 RMK A01 T00840084  RH  100%=      5-min Rain = 0
KMD1 241410Z 00000KT 09/09 A3002 RMK A01 T00860086  RH  100%=      5-min Rain = 0
KMD1 241411Z 34001KT 09/09 A3003 RMK A01 T00870087  RH  100%=      5-min Rain = 0
KMD1 241412Z 34001KT 09/09 A3003 RMK A01 T00880087  RH  100%=      5-min Rain = 0
KMD1 241413Z 00000KT 09/09 A3002 RMK A01 T00890089  RH  100%=      5-min Rain = 0
KMD1 241414Z 20001KT 09/09 A3002 RMK A01 T00910091  RH  100%=      5-min Rain = 0
KMD1 241415Z 22001KT 09/09 A3003 RMK A01 T00920092  RH  100%=      5-min Rain = 0
KMD1 241416Z 23002KT 09/09 A3003 RMK A01 T00930093  RH  100%=      5-min Rain = 0
KMD1 241417Z 23002KT 09/09 A3003 RMK A01 T00940094  RH  100%=      5-min Rain = 0
KMD1 241418Z 23001KT 10/10 A3003 RMK A01 T00950095  RH  100%=      5-min Rain = 0
KMD1 241419Z 21002KT 10/10 A3003 RMK A01 T00950095  RH  100%=      5-min Rain = 0
KMD1 241420Z 20004KT 10/10 A3003 RMK A01 T00950095  RH  100%=      5-min Rain = 0
KMD1 241421Z 19004KT 10/10 A3003 RMK A01 T00960096  RH  100%=      5-min Rain = 0
KMD1 241422Z 22002KT 10/10 A3003 RMK A01 T00980098  RH  100%=      5-min Rain = 0
KMD1 241423Z 24001KT 10/10 A3004 RMK A01 T00990099  RH  100%=      5-min Rain = 0
KMD1 241424Z 22002KT 10/10 A3004 RMK A01 T00990099  RH  100%=      5-min Rain = 0
KMD1 241425Z 20003KT 10/10 A3004 RMK A01 T00990099  RH  100%=      5-min Rain = 0
KMD1 241426Z 21003KT 10/10 A3004 RMK A01 T01000100  RH  100%=      5-min Rain = 0
KMD1 241427Z 20003KT 10/10 A3004 RMK A01 T01000100  RH  100%=      5-min Rain = 0
KMD1 241428Z 21003KT 10/10 A3004 RMK A01 T01010101  RH  100%=      5-min Rain = 0
KMD1 241429Z 25002KT 10/10 A3004 RMK A01 T01020102  RH  100%=      5-min Rain = 0
KMD1 241430Z 28001KT 10/10 A3005 RMK A01 T01030103  RH  100%=      5-min Rain = 0
KMD1 241431Z 31001KT 10/10 A3005 RMK A01 T01030104  RH  100%=      5-min Rain = 0
KMD1 241432Z 29000KT 11/11 A3004 RMK A01 T01050105  RH  100%=      5-min Rain = 0
KMD1 241433Z 00000KT 11/11 A3004 RMK A01 T01060106  RH  100%=      5-min Rain = 0
KMD1 241434Z 30000KT 11/11 A3004 RMK A01 T01080108  RH  100%=      5-min Rain = 0
KMD1 241435Z 22001KT 11/11 A3004 RMK A01 T01100110  RH  100%=      5-min Rain = 0
KMD1 241436Z 23003KT 11/11 A3004 RMK A01 T01110111  RH  100%=      5-min Rain = 0
KMD1 241437Z 24004KT 11/11 A3004 RMK A01 T01120112  RH  100%=      5-min Rain = 0
KMD1 241438Z 25004KT 12/12 A3004 RMK A01 T01150115  RH  100%=      5-min Rain = 0
KMD1 241439Z 24005KT 12/12 A3004 RMK A01 T01160116  RH  100%=      5-min Rain = 0
KMD1 241440Z 25004KT 12/12 A3005 RMK A01 T01160117  RH  100%=      5-min Rain = 0
KMD1 241441Z 26005KT 12/12 A3005 RMK A01 T01170117  RH  100%=      5-min Rain = 0
KMD1 241442Z 26005KT 12/12 A3005 RMK A01 T01180118  RH  100%=      5-min Rain = 0
KMD1 241443Z 25005KT 12/12 A3005 RMK A01 T01200120  RH  100%=      5-min Rain = 0
KMD1 241444Z 26004KT 12/12 A3005 RMK A01 T01220122  RH  100%=      5-min Rain = 0
KMD1 241445Z 27004KT 12/12 A3005 RMK A01 T01240124  RH  100%=      5-min Rain = 0
KMD1 241446Z 26003KT 13/13 A3005 RMK A01 T01250125  RH  100%=      5-min Rain = 0
KMD1 241447Z 27004KT 13/13 A3006 RMK A01 T01270127  RH  100%=      5-min Rain = 0
KMD1 241448Z 27004KT 13/13 A3006 RMK A01 T01280128  RH  100%=      5-min Rain = 0
KMD1 241449Z 27005KT 13/13 A3006 RMK A01 T01280128  RH  100%=      5-min Rain = 0
KMD1 241450Z 26005KT 13/13 A3005 RMK A01 T01300130  RH  100%=      5-min Rain = 0
KMD1 241451Z 27005KT 13/13 A3005 RMK A01 T01320132  RH  100%=      5-min Rain = 0
KMD1 241452Z 27006KT 13/13 A3005 RMK A01 T01340134  RH  100%=      5-min Rain = 0
KMD1 241453Z 28008KT 14/14 A3005 RMK A01 T01370137  RH  100%=      5-min Rain = 0
KMD1 241454Z 27010KT 14/14 A3005 RMK A01 T01400140  RH  100%=      5-min Rain = 0
KMD1 241455Z 27008KT 14/14 A3006 RMK A01 T01420142  RH  100%=      5-min Rain = 0
KMD1 241456Z 28010KT 14/14 A3006 RMK A01 T01440143  RH  099%=      5-min Rain = 0
KMD1 241457Z 28009KT 15/14 A3006 RMK A01 T01470143  RH  098%=      5-min Rain = 0
KMD1 241458Z 28008KT 15/14 A3006 RMK A01 T01480142  RH  096%=      5-min Rain = 0
KMD1 241459Z 29010KT 15/14 A3006 RMK A01 T01490140  RH  094%=      5-min Rain = 0
KMD1 241500Z 30009KT 15/14 A3007 RMK A01 T01500138  RH  092%=      5-min Rain = 0
KMD1 241501Z 30010KT 15/14 A3007 RMK A01 T01510136  RH  091%=      5-min Rain = 0
KMD1 241502Z 30010KT 15/14 A3007 RMK A01 T01510135  RH  090%=      5-min Rain = 0
KMD1 241503Z 30009KT 15/13 A3007 RMK A01 T01510134  RH  090%=      5-min Rain = 0
KMD1 241504Z 31010KT 15/14 A3007 RMK A01 T01510135  RH  090%=      5-min Rain = 0
KMD1 241505Z 29009KT 15/14 A3007 RMK A01 T01520135  RH  090%=      5-min Rain = 0
KMD1 241506Z 29009KT 15/14 A3007 RMK A01 T01530135  RH  089%=      5-min Rain = 0
KMD1 241507Z 29010KT 15/14 A3007 RMK A01 T01540136  RH  089%=      5-min Rain = 0
KMD1 241508Z 29010KT 16/14 A3007 RMK A01 T01550137  RH  089%=      5-min Rain = 0
KMD1 241509Z 30009KT 16/14 A3007 RMK A01 T01570139  RH  089%=      5-min Rain = 0
KMD1 241510Z 30009KT 16/14 A3007 RMK A01 T01580138  RH  088%=      5-min Rain = 0
KMD1 241511Z 30009KT 16/14 A3007 RMK A01 T01580136  RH  087%=      5-min Rain = 0
KMD1 241512Z 30011KT 16/14 A3007 RMK A01 T01590137  RH  087%=      5-min Rain = 0
KMD1 241513Z 30012KT 16/14 A3007 RMK A01 T01590135  RH  086%=      5-min Rain = 0
KMD1 241514Z 29012KT 16/14 A3007 RMK A01 T01580135  RH  086%=      5-min Rain = 0
KMD1 241515Z 29011KT 16/14 A3007 RMK A01 T01580135  RH  086%=      5-min Rain = 0
KMD1 241516Z 29011KT 16/14 A3007 RMK A01 T01590136  RH  086%=      5-min Rain = 0
KMD1 241517Z 30011KT 16/14 A3007 RMK A01 T01590136  RH  086%=      5-min Rain = 0
KMD1 241518Z 30009KT 16/14 A3008 RMK A01 T01610138  RH  086%=      5-min Rain = 0
KMD1 241519Z 31009KT 16/14 A3008 RMK A01 T01620137  RH  085%=      5-min Rain = 0
KMD1 241520Z 31011KT 16/14 A3008 RMK A01 T01620136  RH  084%=      5-min Rain = 0
KMD1 241521Z 32012KT 16/14 A3008 RMK A01 T01630136  RH  084%=      5-min Rain = 0
KMD1 241522Z 31013KT 16/14 A3008 RMK A01 T01630135  RH  083%=      5-min Rain = 0
KMD1 241523Z 31013KT 16/13 A3008 RMK A01 T01630134  RH  083%=      5-min Rain = 0
KMD1 241524Z 30012KT 16/14 A3008 RMK A01 T01630135  RH  084%=      5-min Rain = 0
KMD1 241525Z 30011KT 16/13 A3008 RMK A01 T01620133  RH  083%=      5-min Rain = 0
KMD1 241526Z 31011KT 16/13 A3008 RMK A01 T01630133  RH  083%=      5-min Rain = 0
KMD1 241527Z 30014KT 16/13 A3008 RMK A01 T01630133  RH  082%=      5-min Rain = 0
KMD1 241528Z 30011KT 16/13 A3008 RMK A01 T01630134  RH  083%=      5-min Rain = 0
KMD1 241529Z 29010KT 16/13 A3008 RMK A01 T01640133  RH  082%=      5-min Rain = 0
KMD1 241530Z 29010KT 17/14 A3008 RMK A01 T01650135  RH  082%=      5-min Rain = 0
KMD1 241531Z 31010KT 17/14 A3008 RMK A01 T01670136  RH  082%=      5-min Rain = 0
KMD1 241532Z 31010G15KT 17/13 A3008 RMK A01 T01670133  RH  080%=      5-min Rain = 0
KMD1 241533Z 31013KT 17/13 A3008 RMK A01 T01650131  RH  080%=      5-min Rain = 0
KMD1 241534Z 30009KT 16/13 A3008 RMK A01 T01640133  RH  082%=      5-min Rain = 0
KMD1 241535Z 30009KT 17/13 A3008 RMK A01 T01660134  RH  081%=      5-min Rain = 0
KMD1 241536Z 30010KT 17/13 A3008 RMK A01 T01670132  RH  080%=      5-min Rain = 0
KMD1 241537Z 30009KT 17/13 A3008 RMK A01 T01670133  RH  080%=      5-min Rain = 0
KMD1 241538Z 30010KT 17/13 A3008 RMK A01 T01680133  RH  080%=      5-min Rain = 0
KMD1 241539Z 29011G16KT 17/13 A3008 RMK A01 T01680132  RH  079%=      5-min Rain = 0
KMD1 241540Z 29013KT 17/13 A3008 RMK A01 T01660130  RH  079%=      5-min Rain = 0
KMD1 241541Z 28012KT 16/13 A3008 RMK A01 T01630129  RH  080%=      5-min Rain = 0
KMD1 241542Z 29011KT 16/13 A3008 RMK A01 T01630131  RH  081%=      5-min Rain = 0
KMD1 241543Z 29011KT 16/13 A3008 RMK A01 T01640133  RH  082%=      5-min Rain = 0
KMD1 241544Z 28011KT 17/13 A3008 RMK A01 T01660133  RH  081%=      5-min Rain = 0
KMD1 241545Z 28010KT 17/13 A3008 RMK A01 T01680133  RH  080%=      5-min Rain = 0
KMD1 241546Z 30010KT 17/13 A3008 RMK A01 T01690132  RH  079%=      5-min Rain = 0
KMD1 241547Z 30011KT 17/13 A3008 RMK A01 T01690132  RH  079%=      5-min Rain = 0
KMD1 241548Z 29012KT 17/13 A3008 RMK A01 T01690131  RH  079%=      5-min Rain = 0
KMD1 241549Z 31006KT 17/13 A3008 RMK A01 T01680130  RH  078%=      5-min Rain = 0
KMD1 241550Z 33007KT 17/13 A3008 RMK A01 T01680132  RH  079%=      5-min Rain = 0
KMD1 241551Z 31013KT 17/13 A3008 RMK A01 T01680130  RH  078%=      5-min Rain = 0
KMD1 241552Z 30013KT 17/13 A3008 RMK A01 T01680129  RH  077%=      5-min Rain = 0
KMD1 241553Z 31014KT 17/13 A3008 RMK A01 T01680129  RH  078%=      5-min Rain = 0
KMD1 241554Z 31013KT 17/13 A3008 RMK A01 T01670127  RH  077%=      5-min Rain = 0
KMD1 241555Z 31012KT 17/13 A3008 RMK A01 T01660128  RH  078%=      5-min Rain = 0
KMD1 241556Z 32010KT 17/13 A3008 RMK A01 T01670129  RH  078%=      5-min Rain = 0
KMD1 241557Z 31010KT 17/13 A3008 RMK A01 T01710130  RH  077%=      5-min Rain = 0
KMD1 241558Z 30011KT 17/13 A3008 RMK A01 T01720128  RH  075%=      5-min Rain = 0
KMD1 241559Z 29012KT 17/13 A3008 RMK A01 T01720129  RH  076%=      5-min Rain = 0
KMD1 241600Z 29012KT 17/13 A3008 RMK A01 T01720128  RH  075%=      5-min Rain = 0
KMD1 241601Z 29015KT 17/13 A3008 RMK A01 T01720128  RH  076%=      5-min Rain = 0
KMD1 241602Z 30014KT 17/13 A3008 RMK A01 T01710127  RH  075%=      5-min Rain = 0
KMD1 241603Z 31010KT 17/13 A3008 RMK A01 T01700127  RH  076%=      5-min Rain = 0
KMD1 241604Z 30012KT 17/13 A3008 RMK A01 T01720130  RH  076%=      5-min Rain = 0
KMD1 241605Z 30011KT 17/13 A3008 RMK A01 T01730126  RH  074%=      5-min Rain = 0
KMD1 241606Z 29011KT 17/13 A3008 RMK A01 T01720126  RH  074%=      5-min Rain = 0
KMD1 241607Z 30010KT 17/13 A3008 RMK A01 T01710126  RH  075%=      5-min Rain = 0
KMD1 241608Z 32009G14KT 17/13 A3008 RMK A01 T01720127  RH  075%=      5-min Rain = 0
KMD1 241609Z 32008KT 17/13 A3008 RMK A01 T01740126  RH  073%=      5-min Rain = 0
KMD1 241610Z 31008KT 17/13 A3007 RMK A01 T01740127  RH  074%=      5-min Rain = 0
KMD1 241611Z 31009KT 18/13 A3007 RMK A01 T01760127  RH  073%=      5-min Rain = 0
KMD1 241612Z 30012KT 18/13 A3008 RMK A01 T01770126  RH  072%=      5-min Rain = 0
KMD1 241613Z 31012KT 18/12 A3008 RMK A01 T01780124  RH  071%=      5-min Rain = 0
KMD1 241614Z 30011KT 18/12 A3007 RMK A01 T01780123  RH  070%=      5-min Rain = 0
KMD1 241615Z 30012KT 18/12 A3007 RMK A01 T01780124  RH  071%=      5-min Rain = 0
KMD1 241616Z 31012KT 18/13 A3007 RMK A01 T01790125  RH  071%=      5-min Rain = 0
KMD1 241617Z 30011KT 18/13 A3008 RMK A01 T01810125  RH  070%=      5-min Rain = 0
KMD1 241618Z 29012KT 18/12 A3007 RMK A01 T01820124  RH  069%=      5-min Rain = 0
KMD1 241619Z 31011KT 18/13 A3008 RMK A01 T01830125  RH  069%=      5-min Rain = 0
KMD1 241620Z 33010KT 18/13 A3008 RMK A01 T01840126  RH  069%=      5-min Rain = 0
KMD1 241621Z 33011KT 18/12 A3008 RMK A01 T01830123  RH  068%=      5-min Rain = 0
KMD1 241622Z 33013KT 18/12 A3008 RMK A01 T01790119  RH  068%=      5-min Rain = 0
KMD1 241623Z 34013G18KT 18/12 A3008 RMK A01 T01760118  RH  069%=      5-min Rain = 0
KMD1 241624Z 33013KT 17/12 A3008 RMK A01 T01740117  RH  069%=      5-min Rain = 0
KMD1 241625Z 34012KT 17/12 A3008 RMK A01 T01730117  RH  070%=      5-min Rain = 0
KMD1 241626Z 33013KT 17/12 A3008 RMK A01 T01740116  RH  069%=      5-min Rain = 0
KMD1 241627Z 33013KT 17/11 A3008 RMK A01 T01730113  RH  068%=      5-min Rain = 0
KMD1 241628Z 33013KT 17/11 A3008 RMK A01 T01720112  RH  068%=      5-min Rain = 0
KMD1 241629Z 33011KT 17/11 A3008 RMK A01 T01700110  RH  068%=      5-min Rain = 0
KMD1 241630Z 34012KT 17/11 A3009 RMK A01 T01700112  RH  069%=      5-min Rain = 0
KMD1 241631Z 34013KT 17/11 A3009 RMK A01 T01720112  RH  068%=      5-min Rain = 0
KMD1 241632Z 34013KT 17/11 A3009 RMK A01 T01720109  RH  066%=      5-min Rain = 0
KMD1 241633Z 34012KT 17/11 A3009 RMK A01 T01710108  RH  067%=      5-min Rain = 0
KMD1 241634Z 35012KT 17/11 A3009 RMK A01 T01710107  RH  066%=      5-min Rain = 0
KMD1 241635Z 34010KT 17/11 A3009 RMK A01 T01710106  RH  065%=      5-min Rain = 0
KMD1 241636Z 36012KT 17/10 A3009 RMK A01 T01710104  RH  065%=      5-min Rain = 0
KMD1 241637Z 34012KT 17/11 A3009 RMK A01 T01710105  RH  065%=      5-min Rain = 0
KMD1 241638Z 32010KT 17/11 A3009 RMK A01 T01720106  RH  065%=      5-min Rain = 0
KMD1 241639Z 33008KT 17/11 A3009 RMK A01 T01740106  RH  064%=      5-min Rain = 0
KMD1 241640Z 33009KT 18/11 A3009 RMK A01 T01770108  RH  064%=      5-min Rain = 0
KMD1 241641Z 33009KT 18/11 A3009 RMK A01 T01770105  RH  063%=      5-min Rain = 0
KMD1 241642Z 33008KT 18/11 A3009 RMK A01 T01760105  RH  063%=      5-min Rain = 0
KMD1 241643Z 33007KT 18/11 A3009 RMK A01 T01770106  RH  063%=      5-min Rain = 0
KMD1 241644Z 35009KT 18/10 A3009 RMK A01 T01780102  RH  061%=      5-min Rain = 0
KMD1 241645Z 35010KT 18/10 A3009 RMK A01 T01760099  RH  061%=      5-min Rain = 0
KMD1 241646Z 33008KT 18/10 A301 RMK A01 T01760100  RH  061%=      5-min Rain = 0
KMD1 241647Z 34011KT 18/10 A301 RMK A01 T01780099  RH  060%=      5-min Rain = 0
KMD1 241648Z 34011KT 18/09 A301 RMK A01 T01780094  RH  058%=      5-min Rain = 0
KMD1 241649Z 32011KT 18/09 A301 RMK A01 T01760093  RH  058%=      5-min Rain = 0
KMD1 241650Z 34009KT 18/09 A301 RMK A01 T01760094  RH  058%=      5-min Rain = 0
KMD1 241651Z 34007KT 18/10 A301 RMK A01 T01770095  RH  059%=      5-min Rain = 0
KMD1 241652Z 34009KT 18/09 A301 RMK A01 T01770092  RH  057%=      5-min Rain = 0
KMD1 241653Z 31009KT 18/09 A301 RMK A01 T01770090  RH  057%=      5-min Rain = 0
KMD1 241654Z 33008KT 18/09 A301 RMK A01 T01760090  RH  057%=      5-min Rain = 0
KMD1 241655Z 35007KT 18/09 A301 RMK A01 T01800093  RH  057%=      5-min Rain = 0
KMD1 241656Z 32006KT 18/09 A301 RMK A01 T01830093  RH  056%=      5-min Rain = 0
KMD1 241657Z 35006KT 19/09 A301 RMK A01 T01850093  RH  055%=      5-min Rain = 0
KMD1 241658Z 35009KT 18/09 A301 RMK A01 T01840087  RH  053%=      5-min Rain = 0
KMD1 241659Z 34010KT 18/09 A301 RMK A01 T01820086  RH  054%=      5-min Rain = 0
KMD1 241700Z 32007KT 18/09 A301 RMK A01 T01800085  RH  054%=      5-min Rain = 0
KMD1 241701Z 31006KT 18/09 A301 RMK A01 T01790085  RH  054%=      5-min Rain = 0
KMD1 241702Z 33007KT 18/09 A301 RMK A01 T01810085  RH  054%=      5-min Rain = 0
KMD1 241703Z 34009KT 18/08 A301 RMK A01 T01790080  RH  052%=      5-min Rain = 0
KMD1 241704Z 33008KT 18/08 A301 RMK A01 T01770079  RH  052%=      5-min Rain = 0
KMD1 241705Z 00008KT 18/08 A301 RMK A01 T01770079  RH  053%=      5-min Rain = 0
KMD1 241706Z 35007KT 18/08 A301 RMK A01 T01770078  RH  052%=      5-min Rain = 0
KMD1 241707Z 35007KT 18/08 A301 RMK A01 T01760075  RH  051%=      5-min Rain = 0
KMD1 241708Z 36008KT 18/08 A301 RMK A01 T01760076  RH  052%=      5-min Rain = 0
KMD1 241709Z 35009KT 18/08 A301 RMK A01 T01760075  RH  051%=      5-min Rain = 0
KMD1 241710Z 33012KT 18/08 A301 RMK A01 T01780075  RH  051%=      5-min Rain = 0
KMD1 241711Z 32012KT 18/07 A301 RMK A01 T01790074  RH  050%=      5-min Rain = 0
KMD1 241712Z 32012KT 18/08 A301 RMK A01 T01800075  RH  050%=      5-min Rain = 0
KMD1 241713Z 33009KT 18/07 A301 RMK A01 T01800072  RH  049%=      5-min Rain = 0
KMD1 241714Z 34007KT 18/07 A301 RMK A01 T01790071  RH  049%=      5-min Rain = 0
KMD1 241715Z 33007KT 18/07 A301 RMK A01 T01780071  RH  049%=      5-min Rain = 0
KMD1 241716Z 31009KT 18/07 A301 RMK A01 T01790071  RH  049%=      5-min Rain = 0
KMD1 241717Z 31007KT 18/07 A301 RMK A01 T01800070  RH  049%=      5-min Rain = 0
KMD1 241718Z 33010KT 18/07 A301 RMK A01 T01800070  RH  048%=      5-min Rain = 0
KMD1 241719Z 35008KT 18/07 A301 RMK A01 T01790068  RH  048%=      5-min Rain = 0
KMD1 241720Z 36007KT 18/07 A301 RMK A01 T01800068  RH  048%=      5-min Rain = 0
KMD1 241721Z 36006KT 18/07 A301 RMK A01 T01790067  RH  048%=      5-min Rain = 0
KMD1 241722Z 35006KT 18/07 A301 RMK A01 T01800069  RH  048%=      5-min Rain = 0
KMD1 241723Z 33007KT 18/07 A301 RMK A01 T01820070  RH  048%=      5-min Rain = 0
KMD1 241724Z 32006KT 19/07 A301 RMK A01 T01850069  RH  047%=      5-min Rain = 0
KMD1 241725Z 33007KT 18/07 A301 RMK A01 T01840066  RH  046%=      5-min Rain = 0
KMD1 241726Z 34009KT 19/07 A301 RMK A01 T01850067  RH  046%=      5-min Rain = 0
KMD1 241727Z 35010KT 19/07 A301 RMK A01 T01850067  RH  046%=      5-min Rain = 0
KMD1 241728Z 34009KT 19/07 A301 RMK A01 T01850065  RH  045%=      5-min Rain = 0
KMD1 241729Z 36008KT 18/06 A301 RMK A01 T01840063  RH  045%=      5-min Rain = 0
KMD1 241730Z 33010KT 18/06 A301 RMK A01 T01830063  RH  045%=      5-min Rain = 0
KMD1 241731Z 31007KT 18/06 A301 RMK A01 T01840062  RH  045%=      5-min Rain = 0
KMD1 241732Z 32004KT 18/06 A301 RMK A01 T01840060  RH  044%=      5-min Rain = 0
KMD1 241733Z 33007KT 18/07 A301 RMK A01 T01840065  RH  046%=      5-min Rain = 0
KMD1 241734Z 35005KT 19/06 A301 RMK A01 T01850062  RH  044%=      5-min Rain = 0
KMD1 241735Z 34004KT 18/06 A301 RMK A01 T01830060  RH  044%=      5-min Rain = 0
KMD1 241736Z 35004KT 18/06 A301 RMK A01 T01830064  RH  046%=      5-min Rain = 0
KMD1 241737Z 32010KT 19/06 A301 RMK A01 T01860064  RH  045%=      5-min Rain = 0
KMD1 241738Z 32009KT 19/06 A301 RMK A01 T01870060  RH  043%=      5-min Rain = 0
KMD1 241739Z 31008KT 19/06 A301 RMK A01 T01870061  RH  044%=      5-min Rain = 0
KMD1 241740Z 30008KT 19/06 A301 RMK A01 T01890060  RH  043%=      5-min Rain = 0
KMD1 241741Z 30007KT 19/06 A301 RMK A01 T01880057  RH  042%=      5-min Rain = 0
KMD1 241742Z 31005KT 19/06 A301 RMK A01 T01860057  RH  043%=      5-min Rain = 0
KMD1 241743Z 31006KT 19/06 A301 RMK A01 T01870062  RH  044%=      5-min Rain = 0
KMD1 241744Z 32005KT 19/06 A301 RMK A01 T01880058  RH  043%=      5-min Rain = 0
KMD1 241745Z 34010KT 19/06 A301 RMK A01 T01890063  RH  044%=      5-min Rain = 0
KMD1 241746Z 34009KT 19/06 A301 RMK A01 T01900057  RH  042%=      5-min Rain = 0
KMD1 241747Z 35008KT 19/05 A301 RMK A01 T01870054  RH  042%=      5-min Rain = 0
KMD1 241748Z 34008KT 19/05 A301 RMK A01 T01860054  RH  042%=      5-min Rain = 0
KMD1 241749Z 33007KT 19/06 A301 RMK A01 T01860055  RH  042%=      5-min Rain = 0
KMD1 241750Z 35007KT 19/06 A301 RMK A01 T01880056  RH  042%=      5-min Rain = 0
KMD1 241751Z 36007KT 19/06 A301 RMK A01 T01890057  RH  042%=      5-min Rain = 0
KMD1 241752Z 32007KT 19/06 A301 RMK A01 T01910060  RH  042%=      5-min Rain = 0
KMD1 241753Z 32004KT 19/05 A301 RMK A01 T01920053  RH  040%=      5-min Rain = 0
KMD1 241754Z 03003KT 19/05 A301 RMK A01 T01910054  RH  041%=      5-min Rain = 0
KMD1 241755Z 33003KT 19/06 A301 RMK A01 T01910059  RH  042%=      5-min Rain = 0
KMD1 241756Z 32008KT 19/06 A3009 RMK A01 T01930055  RH  040%=      5-min Rain = 0
KMD1 241757Z 32009KT 19/05 A3009 RMK A01 T01940054  RH  040%=      5-min Rain = 0
KMD1 241758Z 33008KT 19/05 A3009 RMK A01 T01930052  RH  039%=      5-min Rain = 0
KMD1 241759Z 34006KT 19/05 A3009 RMK A01 T01920050  RH  039%=      5-min Rain = 0
KMD1 241800Z 00007KT 19/05 A3009 RMK A01 T01920052  RH  040%=      5-min Rain = 0
KMD1 241801Z 36006KT 19/05 A3009 RMK A01 T01940050  RH  039%=      5-min Rain = 0
KMD1 241802Z 01006KT 19/05 A3009 RMK A01 T01940047  RH  038%=      5-min Rain = 0
KMD1 241803Z 00008KT 19/05 A3009 RMK A01 T01930050  RH  039%=      5-min Rain = 0
KMD1 241804Z 33008KT 20/05 A3009 RMK A01 T01950045  RH  037%=      5-min Rain = 0
KMD1 241805Z 35007KT 19/04 A3009 RMK A01 T01940042  RH  037%=      5-min Rain = 0
KMD1 241806Z 36005KT 19/04 A3009 RMK A01 T01910041  RH  037%=      5-min Rain = 0
KMD1 241807Z 35007KT 19/05 A3009 RMK A01 T01910045  RH  038%=      5-min Rain = 0
KMD1 241808Z 35009KT 19/04 A3009 RMK A01 T01940042  RH  037%=      5-min Rain = 0
KMD1 241809Z 34009KT 19/04 A3009 RMK A01 T01930042  RH  037%=      5-min Rain = 0
KMD1 241810Z 35008KT 19/04 A3009 RMK A01 T01920039  RH  036%=      5-min Rain = 0
KMD1 241811Z 36010KT 19/04 A3009 RMK A01 T01930043  RH  037%=      5-min Rain = 0
KMD1 241812Z 35011KT 19/04 A3009 RMK A01 T01940039  RH  036%=      5-min Rain = 0
KMD1 241813Z 36008KT 19/04 A3009 RMK A01 T01920035  RH  035%=      5-min Rain = 0
KMD1 241814Z 36006KT 19/04 A3009 RMK A01 T01910036  RH  036%=      5-min Rain = 0
KMD1 241815Z 35007KT 19/04 A3009 RMK A01 T01910035  RH  036%=      5-min Rain = 0
KMD1 241816Z 36006KT 19/03 A3009 RMK A01 T01910033  RH  035%=      5-min Rain = 0
KMD1 241817Z 33005KT 19/03 A3009 RMK A01 T01900032  RH  035%=      5-min Rain = 0
KMD1 241818Z 31006KT 19/03 A3009 RMK A01 T01900033  RH  035%=      5-min Rain = 0
KMD1 241819Z 30006KT 19/03 A3009 RMK A01 T01920033  RH  035%=      5-min Rain = 0
KMD1 241820Z 34009KT 19/04 A3009 RMK A01 T01930035  RH  035%=      5-min Rain = 0
KMD1 241821Z 34008KT 20/04 A3009 RMK A01 T01950036  RH  035%=      5-min Rain = 0
KMD1 241822Z 34008KT 20/04 A3009 RMK A01 T01970036  RH  034%=      5-min Rain = 0
KMD1 241823Z 33008KT 20/03 A3009 RMK A01 T01970031  RH  033%=      5-min Rain = 0
KMD1 241824Z 34007KT 19/03 A3009 RMK A01 T01940029  RH  033%=      5-min Rain = 0
KMD1 241825Z 34006KT 19/03 A3009 RMK A01 T01930031  RH  034%=      5-min Rain = 0
KMD1 241826Z 35004KT 19/03 A3009 RMK A01 T01940029  RH  033%=      5-min Rain = 0
KMD1 241827Z 36004KT 20/03 A3009 RMK A01 T01950032  RH  034%=      5-min Rain = 0
KMD1 241828Z 33001KT 20/03 A3009 RMK A01 T01960030  RH  033%=      5-min Rain = 0
KMD1 241829Z 01003KT 20/03 A3009 RMK A01 T01960028  RH  033%=      5-min Rain = 0
KMD1 241830Z 34003KT 20/03 A3008 RMK A01 T01960032  RH  034%=      5-min Rain = 0
KMD1 241831Z 31006KT 20/03 A3008 RMK A01 T01970030  RH  033%=      5-min Rain = 0
KMD1 241832Z 31008KT 20/04 A3008 RMK A01 T02000037  RH  034%=      5-min Rain = 0
KMD1 241833Z 31007KT 20/03 A3008 RMK A01 T02020029  RH  032%=      5-min Rain = 0
KMD1 241834Z 32004KT 20/03 A3008 RMK A01 T02000025  RH  031%=      5-min Rain = 0
KMD1 241835Z 33005KT 20/03 A3008 RMK A01 T01990030  RH  033%=      5-min Rain = 0
KMD1 241836Z 30004KT 20/03 A3008 RMK A01 T02000032  RH  033%=      5-min Rain = 0
KMD1 241837Z 34007KT 20/03 A3008 RMK A01 T02020033  RH  033%=      5-min Rain = 0
KMD1 241838Z 35008KT 20/03 A3008 RMK A01 T02030033  RH  032%=      5-min Rain = 0
KMD1 241839Z 34008KT 20/03 A3008 RMK A01 T02030031  RH  032%=      5-min Rain = 0
KMD1 241840Z 34005KT 20/03 A3008 RMK A01 T02030029  RH  032%=      5-min Rain = 0
KMD1 241841Z 34009KT 20/03 A3008 RMK A01 T02030034  RH  033%=      5-min Rain = 0
KMD1 241842Z 33008KT 20/03 A3008 RMK A01 T02040028  RH  031%=      5-min Rain = 0
KMD1 241843Z 33009KT 20/03 A3008 RMK A01 T02040026  RH  031%=      5-min Rain = 0
KMD1 241844Z 33004KT 20/02 A3008 RMK A01 T02000024  RH  031%=      5-min Rain = 0
KMD1 241845Z 33004KT 20/02 A3008 RMK A01 T02000024  RH  031%=      5-min Rain = 0
KMD1 241846Z 33003KT 20/03 A3008 RMK A01 T02010025  RH  031%=      5-min Rain = 0
KMD1 241847Z 31004KT 20/03 A3008 RMK A01 T02020027  RH  031%=      5-min Rain = 0
KMD1 241848Z 29003KT 20/03 A3008 RMK A01 T02040026  RH  031%=      5-min Rain = 0
KMD1 241849Z 35002KT 20/02 A3008 RMK A01 T02040024  RH  030%=      5-min Rain = 0
KMD1 241850Z 01003KT 20/03 A3008 RMK A01 T02040025  RH  031%=      5-min Rain = 0
KMD1 241851Z 01007KT 20/03 A3008 RMK A01 T02030026  RH  031%=      5-min Rain = 0
KMD1 241852Z 00006KT 20/03 A3008 RMK A01 T02030029  RH  032%=      5-min Rain = 0
KMD1 241853Z 02004KT 20/02 A3008 RMK A01 T02030024  RH  030%=      5-min Rain = 0
KMD1 241854Z 03003KT 20/02 A3008 RMK A01 T02020023  RH  031%=      5-min Rain = 0
KMD1 241855Z 35004KT 20/03 A3008 RMK A01 T02010025  RH  031%=      5-min Rain = 0
KMD1 241856Z 34007KT 20/03 A3008 RMK A01 T02020026  RH  031%=      5-min Rain = 0
KMD1 241857Z 34007KT 20/02 A3008 RMK A01 T02040023  RH  030%=      5-min Rain = 0
KMD1 241858Z 32004KT 20/02 A3008 RMK A01 T02030022  RH  030%=      5-min Rain = 0
KMD1 241859Z 34004KT 20/02 A3008 RMK A01 T02030024  RH  030%=      5-min Rain = 0
KMD1 241900Z 35003KT 20/02 A3008 RMK A01 T02030020  RH  030%=      5-min Rain = 0
KMD1 241901Z 34007KT 20/03 A3008 RMK A01 T02040027  RH  031%=      5-min Rain = 0
KMD1 241902Z 33006KT 21/03 A3008 RMK A01 T02060025  RH  030%=      5-min Rain = 0
KMD1 241903Z 36003KT 21/03 A3008 RMK A01 T02070027  RH  030%=      5-min Rain = 0
KMD1 241904Z 31005KT 21/03 A3008 RMK A01 T02080025  RH  030%=      5-min Rain = 0
KMD1 241905Z 31007KT 21/03 A3007 RMK A01 T02100025  RH  030%=      5-min Rain = 0
KMD1 241906Z 31008KT 21/02 A3007 RMK A01 T02100019  RH  028%=      5-min Rain = 0
KMD1 241907Z 31006KT 21/02 A3007 RMK A01 T02080020  RH  029%=      5-min Rain = 0
KMD1 241908Z 30006KT 21/02 A3007 RMK A01 T02070018  RH  028%=      5-min Rain = 0
KMD1 241909Z 32004KT 21/02 A3007 RMK A01 T02070023  RH  029%=      5-min Rain = 0
KMD1 241910Z 32004KT 21/02 A3007 RMK A01 T02100023  RH  029%=      5-min Rain = 0
KMD1 241911Z 31001KT 21/02 A3007 RMK A01 T02100020  RH  028%=      5-min Rain = 0
KMD1 241912Z 30006KT 21/02 A3007 RMK A01 T02110020  RH  028%=      5-min Rain = 0
KMD1 241913Z 30005KT 21/02 A3007 RMK A01 T02120018  RH  028%=      5-min Rain = 0
KMD1 241914Z 28002KT 21/01 A3007 RMK A01 T02100013  RH  027%=      5-min Rain = 0
KMD1 241915Z 31004KT 21/01 A3007 RMK A01 T02090014  RH  027%=      5-min Rain = 0
KMD1 241916Z 34002KT 21/02 A3007 RMK A01 T02090016  RH  028%=      5-min Rain = 0
KMD1 241917Z 01002KT 21/02 A3007 RMK A01 T02090017  RH  028%=      5-min Rain = 0
KMD1 241918Z 36004KT 21/02 A3007 RMK A01 T02100021  RH  029%=      5-min Rain = 0
KMD1 241919Z 36007KT 21/02 A3007 RMK A01 T02110022  RH  029%=      5-min Rain = 0
KMD1 241920Z 31008KT 21/02 A3007 RMK A01 T02130024  RH  029%=      5-min Rain = 0
KMD1 241921Z 30009KT 22/02 A3007 RMK A01 T02150022  RH  028%=      5-min Rain = 0
KMD1 241922Z 29006KT 22/02 A3007 RMK A01 T02160019  RH  027%=      5-min Rain = 0
KMD1 241923Z 32005KT 21/02 A3007 RMK A01 T02140016  RH  027%=      5-min Rain = 0
KMD1 241924Z 31006KT 21/02 A3007 RMK A01 T02130023  RH  028%=      5-min Rain = 0
KMD1 241925Z 33006KT 22/02 A3007 RMK A01 T02150017  RH  027%=      5-min Rain = 0
KMD1 241926Z 34006KT 21/02 A3007 RMK A01 T02140017  RH  027%=      5-min Rain = 0
KMD1 241927Z 34004KT 21/02 A3007 RMK A01 T02120016  RH  027%=      5-min Rain = 0
KMD1 241928Z 29006KT 21/02 A3007 RMK A01 T02110020  RH  028%=      5-min Rain = 0
KMD1 241929Z 30004KT 21/01 A3007 RMK A01 T02130013  RH  027%=      5-min Rain = 0
KMD1 241930Z 31005KT 21/01 A3007 RMK A01 T02120014  RH  027%=      5-min Rain = 0
KMD1 241931Z 32009KT 21/02 A3007 RMK A01 T02130018  RH  028%=      5-min Rain = 0
KMD1 241932Z 32007KT 22/02 A3007 RMK A01 T02150019  RH  027%=      5-min Rain = 0
KMD1 241933Z 32004KT 22/02 A3007 RMK A01 T02160018  RH  027%=      5-min Rain = 0
KMD1 241934Z 02006KT 22/02 A3007 RMK A01 T02170017  RH  027%=      5-min Rain = 0
KMD1 241935Z 03006KT 22/02 A3007 RMK A01 T02160017  RH  027%=      5-min Rain = 0
KMD1 241936Z 02005KT 22/02 A3006 RMK A01 T02150019  RH  028%=      5-min Rain = 0
KMD1 241937Z 35006KT 22/02 A3006 RMK A01 T02160019  RH  027%=      5-min Rain = 0
KMD1 241938Z 35006KT 22/02 A3006 RMK A01 T02170016  RH  026%=      5-min Rain = 0
KMD1 241939Z 30006KT 22/02 A3006 RMK A01 T02160019  RH  027%=      5-min Rain = 0
KMD1 241940Z 31006KT 22/02 A3006 RMK A01 T02170016  RH  026%=      5-min Rain = 0
KMD1 241941Z 29005KT 22/01 A3006 RMK A01 T02170013  RH  026%=      5-min Rain = 0
KMD1 241942Z 27003KT 22/01 A3006 RMK A01 T02160010  RH  025%=      5-min Rain = 0
KMD1 241943Z 25003KT 21/01 A3005 RMK A01 T02140010  RH  026%=      5-min Rain = 0
KMD1 241944Z 30002KT 21/01 A3005 RMK A01 T02140011  RH  026%=      5-min Rain = 0
KMD1 241945Z 32007KT 22/02 A3005 RMK A01 T02150016  RH  027%=      5-min Rain = 0
KMD1 241946Z 33006KT 22/02 A3005 RMK A01 T02170018  RH  027%=      5-min Rain = 0
KMD1 241947Z 30005KT 22/01 A3005 RMK A01 T02200013  RH  025%=      5-min Rain = 0
KMD1 241948Z 30004KT 22/01 A3005 RMK A01 T02190012  RH  025%=      5-min Rain = 0
KMD1 241949Z 33004KT 22/01 A3005 RMK A01 T02190009  RH  025%=      5-min Rain = 0
KMD1 241950Z 34006KT 22/01 A3005 RMK A01 T02170008  RH  025%=      5-min Rain = 0
KMD1 241951Z 31008KT 22/01 A3005 RMK A01 T02160010  RH  026%=      5-min Rain = 0
KMD1 241952Z 32008KT 22/01 A3005 RMK A01 T02160013  RH  026%=      5-min Rain = 0
KMD1 241953Z 35005KT 22/01 A3005 RMK A01 T02170011  RH  025%=      5-min Rain = 0
KMD1 241954Z 31004KT 22/01 A3005 RMK A01 T02170014  RH  026%=      5-min Rain = 0
KMD1 241955Z 30005KT 22/01 A3005 RMK A01 T02190013  RH  026%=      5-min Rain = 0
KMD1 241956Z 34006KT 22/02 A3005 RMK A01 T02200016  RH  026%=      5-min Rain = 0
KMD1 241957Z 00006KT 22/01 A3005 RMK A01 T02200013  RH  025%=      5-min Rain = 0
KMD1 241958Z 36002KT 22/01 A3005 RMK A01 T02190005  RH  024%=      5-min Rain = 0
KMD1 241959Z 03001KT 22/01 A3005 RMK A01 T02170007  RH  025%=      5-min Rain = 0
KMD1 242000Z 04004KT 22/01 A3005 RMK A01 T02170013  RH  026%=      5-min Rain = 0
KMD1 242001Z 00006KT 22/01 A3005 RMK A01 T02200014  RH  026%=      5-min Rain = 0
KMD1 242002Z 01008KT 22/01 A3005 RMK A01 T02210014  RH  025%=      5-min Rain = 0
KMD1 242003Z 03008KT 22/02 A3005 RMK A01 T02200016  RH  026%=      5-min Rain = 0
KMD1 242004Z 02005KT 22/01 A3005 RMK A01 T02200010  RH  025%=      5-min Rain = 0
KMD1 242005Z 02004KT 22/01 A3005 RMK A01 T02180011  RH  025%=      5-min Rain = 0
KMD1 242006Z 34005KT 22/01 A3005 RMK A01 T02170011  RH  025%=      5-min Rain = 0
KMD1 242007Z 34007KT 22/01 A3005 RMK A01 T02190013  RH  026%=      5-min Rain = 0
KMD1 242008Z 02005KT 22/02 A3005 RMK A01 T02230020  RH  026%=      5-min Rain = 0
KMD1 242009Z 02005KT 22/01 A3005 RMK A01 T02240010  RH  024%=      5-min Rain = 0
KMD1 242010Z 02007KT 22/01 A3004 RMK A01 T02200013  RH  025%=      5-min Rain = 0
KMD1 242011Z 01008KT 22/01 A3004 RMK A01 T02200014  RH  026%=      5-min Rain = 0
KMD1 242012Z 34006KT 22/02 A3004 RMK A01 T02230018  RH  026%=      5-min Rain = 0
KMD1 242013Z 36003KT 22/01 A3004 RMK A01 T02240012  RH  025%=      5-min Rain = 0
KMD1 242014Z 35006KT 22/01 A3004 RMK A01 T02240013  RH  025%=      5-min Rain = 0
KMD1 242015Z 01004KT 22/01 A3004 RMK A01 T02240009  RH  024%=      5-min Rain = 0
KMD1 242016Z 34002KT 22/01 A3004 RMK A01 T02210008  RH  024%=      5-min Rain = 0
KMD1 242017Z 31007KT 22/01 A3004 RMK A01 T02210012  RH  025%=      5-min Rain = 0
KMD1 242018Z 30007KT 22/01 A3004 RMK A01 T02230010  RH  024%=      5-min Rain = 0
KMD1 242019Z 31008KT 22/01 A3004 RMK A01 T02230010  RH  024%=      5-min Rain = 0
KMD1 242020Z 34008KT 23/02 A3004 RMK A01 T02250015  RH  025%=      5-min Rain = 0
KMD1 242021Z 35006KT 23/01 A3004 RMK A01 T02260011  RH  024%=      5-min Rain = 0
KMD1 242022Z 33007KT 23/02 A3004 RMK A01 T02250015  RH  025%=      5-min Rain = 0
KMD1 242023Z 30007KT 23/01 A3004 RMK A01 T02260012  RH  024%=      5-min Rain = 0
KMD1 242024Z 28006KT 23/01 A3004 RMK A01 T02260008  RH  024%=      5-min Rain = 0
KMD1 242025Z 30005KT 23/01 A3004 RMK A01 T02250008  RH  024%=      5-min Rain = 0
KMD1 242026Z 31005KT 23/01 A3004 RMK A01 T02250013  RH  025%=      5-min Rain = 0
KMD1 242027Z 34004KT 23/01 A3004 RMK A01 T02290012  RH  024%=      5-min Rain = 0
KMD1 242028Z 35002KT 23/01 A3004 RMK A01 T02280006  RH  023%=      5-min Rain = 0
KMD1 242029Z 33007KT 23/01 A3004 RMK A01 T02270012  RH  024%=      5-min Rain = 0
KMD1 242030Z 34005KT 23/01 A3004 RMK A01 T02270007  RH  023%=      5-min Rain = 0
KMD1 242031Z 33003KT 23/00 A3004 RMK A01 T02250004  RH  023%=      5-min Rain = 0
KMD1 242032Z 34004KT 22/01 A3004 RMK A01 T02240011  RH  024%=      5-min Rain = 0
KMD1 242033Z 34006KT 23/02 A3004 RMK A01 T02270015  RH  025%=      5-min Rain = 0
KMD1 242034Z 35004KT 23/01 A3004 RMK A01 T02270012  RH  024%=      5-min Rain = 0
KMD1 242035Z 35007KT 23/02 A3004 RMK A01 T02260015  RH  025%=      5-min Rain = 0
KMD1 242036Z 35006KT 23/01 A3004 RMK A01 T02270014  RH  024%=      5-min Rain = 0
KMD1 242037Z 34009KT 23/02 A3004 RMK A01 T02270017  RH  025%=      5-min Rain = 0
KMD1 242038Z 34007KT 23/02 A3004 RMK A01 T02270016  RH  025%=      5-min Rain = 0
KMD1 242039Z 33008KT 23/01 A3004 RMK A01 T02280010  RH  024%=      5-min Rain = 0
KMD1 242040Z 35006KT 23/01 A3004 RMK A01 T02260010  RH  024%=      5-min Rain = 0
KMD1 242041Z 36004KT 23/01 A3004 RMK A01 T02260012  RH  024%=      5-min Rain = 0
KMD1 242042Z 01004KT 23/01 A3004 RMK A01 T02260010  RH  024%=      5-min Rain = 0
KMD1 242043Z 35006KT 23/01 A3004 RMK A01 T02260008  RH  024%=      5-min Rain = 0
KMD1 242044Z 34005KT 23/01 A3004 RMK A01 T02250010  RH  024%=      5-min Rain = 0
KMD1 242045Z 34004KT 23/01 A3004 RMK A01 T02270007  RH  023%=      5-min Rain = 0
KMD1 242046Z 34004KT 23/01 A3004 RMK A01 T02270007  RH  023%=      5-min Rain = 0
KMD1 242047Z 35005KT 23/01 A3004 RMK A01 T02260005  RH  023%=      5-min Rain = 0
KMD1 242048Z 35007KT 23/01 A3004 RMK A01 T02260011  RH  024%=      5-min Rain = 0
KMD1 242049Z 02008KT 23/01 A3004 RMK A01 T02280010  RH  024%=      5-min Rain = 0
KMD1 242050Z 01008KT 23/01 A3004 RMK A01 T02270008  RH  023%=      5-min Rain = 0
KMD1 242051Z 01008KT 23/01 A3004 RMK A01 T02260010  RH  024%=      5-min Rain = 0
KMD1 242052Z 01005KT 23/01 A3004 RMK A01 T02260008  RH  024%=      5-min Rain = 0
KMD1 242053Z 02004KT 22/01 A3004 RMK A01 T02240006  RH  023%=      5-min Rain = 0
KMD1 242054Z 36005KT 22/01 A3004 RMK A01 T02230007  RH  024%=      5-min Rain = 0
KMD1 242055Z 00007KT 22/01 A3004 RMK A01 T02240012  RH  025%=      5-min Rain = 0
KMD1 242056Z 00009KT 23/01 A3004 RMK A01 T02260010  RH  024%=      5-min Rain = 0
KMD1 242057Z 01007KT 23/01 A3004 RMK A01 T02250006  RH  023%=      5-min Rain = 0
KMD1 242058Z 36005KT 22/01 A3004 RMK A01 T02240011  RH  025%=      5-min Rain = 0
KMD1 242059Z 36005KT 22/01 A3004 RMK A01 T02240008  RH  024%=      5-min Rain = 0
KMD1 242100Z 01005KT 23/01 A3004 RMK A01 T02250007  RH  024%=      5-min Rain = 0
KMD1 242101Z 34003KT 23/00 A3004 RMK A01 T02250001  RH  023%=      5-min Rain = 0
KMD1 242102Z 34005KT 23/01 A3004 RMK A01 T02250011  RH  024%=      5-min Rain = 0
KMD1 242103Z 36007KT 23/01 A3004 RMK A01 T02280009  RH  024%=      5-min Rain = 0
KMD1 242104Z 01008KT 23/01 A3004 RMK A01 T02270010  RH  024%=      5-min Rain = 0
KMD1 242105Z 02006KT 23/01 A3004 RMK A01 T02260010  RH  024%=      5-min Rain = 0
KMD1 242106Z 02004KT 23/01 A3004 RMK A01 T02260007  RH  024%=      5-min Rain = 0
KMD1 242107Z 02005KT 23/01 A3004 RMK A01 T02260010  RH  024%=      5-min Rain = 0
KMD1 242108Z 02007KT 23/02 A3004 RMK A01 T02260015  RH  025%=      5-min Rain = 0
KMD1 242109Z 01006KT 23/02 A3004 RMK A01 T02300019  RH  025%=      5-min Rain = 0
KMD1 242110Z 03006KT 23/02 A3004 RMK A01 T02320017  RH  024%=      5-min Rain = 0
KMD1 242111Z 02006KT 23/01 A3004 RMK A01 T02310011  RH  023%=      5-min Rain = 0
KMD1 242112Z 01006KT 23/01 A3004 RMK A01 T02290010  RH  024%=      5-min Rain = 0
KMD1 242113Z 36006KT 23/01 A3004 RMK A01 T02280010  RH  024%=      5-min Rain = 0
KMD1 242114Z 00005KT 23/01 A3004 RMK A01 T02280012  RH  024%=      5-min Rain = 0
KMD1 242115Z 34009KT 23/01 A3004 RMK A01 T02290013  RH  024%=      5-min Rain = 0
KMD1 242116Z 35006KT 23/01 A3004 RMK A01 T02290006  RH  023%=      5-min Rain = 0
KMD1 242117Z 35008KT 23/01 A3004 RMK A01 T02270010  RH  024%=      5-min Rain = 0
KMD1 242118Z 01009KT 23/01 A3004 RMK A01 T02280012  RH  024%=      5-min Rain = 0
KMD1 242119Z 01008KT 23/01 A3004 RMK A01 T02280011  RH  024%=      5-min Rain = 0
KMD1 242120Z 01007KT 23/01 A3004 RMK A01 T02280011  RH  024%=      5-min Rain = 0
KMD1 242121Z 35007KT 23/01 A3004 RMK A01 T02280009  RH  024%=      5-min Rain = 0
KMD1 242122Z 35006KT 23/01 A3004 RMK A01 T02280010  RH  024%=      5-min Rain = 0
KMD1 242123Z 34004KT 23/01 A3004 RMK A01 T02290008  RH  023%=      5-min Rain = 0
KMD1 242124Z 35005KT 23/01 A3004 RMK A01 T02280007  RH  023%=      5-min Rain = 0
KMD1 242125Z 01005KT 23/01 A3004 RMK A01 T02290009  RH  023%=      5-min Rain = 0
KMD1 242126Z 02004KT 23/01 A3004 RMK A01 T02300009  RH  023%=      5-min Rain = 0
KMD1 242127Z 02004KT 23/01 A3004 RMK A01 T02300007  RH  023%=      5-min Rain = 0
KMD1 242128Z 04003KT 23/01 A3004 RMK A01 T02290009  RH  023%=      5-min Rain = 0
KMD1 242129Z 04002KT 23/01 A3004 RMK A01 T02280009  RH  023%=      5-min Rain = 0
KMD1 242130Z 34005KT 23/01 A3004 RMK A01 T02280008  RH  023%=      5-min Rain = 0
KMD1 242131Z 01006KT 23/01 A3004 RMK A01 T02280007  RH  023%=      5-min Rain = 0
KMD1 242132Z 34008KT 23/01 A3004 RMK A01 T02280010  RH  024%=      5-min Rain = 0
KMD1 242133Z 32005KT 23/00 A3004 RMK A01 T02280003  RH  022%=      5-min Rain = 0
KMD1 242134Z 34006KT 23/01 A3004 RMK A01 T02270006  RH  023%=      5-min Rain = 0
KMD1 242135Z 35005KT 23/01 A3004 RMK A01 T02280008  RH  023%=      5-min Rain = 0
KMD1 242136Z 33007KT 23/01 A3004 RMK A01 T02300012  RH  024%=      5-min Rain = 0
KMD1 242137Z 36007KT 23/01 A3004 RMK A01 T02310014  RH  024%=      5-min Rain = 0
KMD1 242138Z 36007KT 23/01 A3004 RMK A01 T02310012  RH  024%=      5-min Rain = 0
KMD1 242139Z 34005KT 23/01 A3004 RMK A01 T02270007  RH  023%=      5-min Rain = 0
KMD1 242140Z 00004KT 23/01 A3004 RMK A01 T02260013  RH  024%=      5-min Rain = 0
KMD1 242141Z 36003KT 23/02 A3004 RMK A01 T02290018  RH  025%=      5-min Rain = 0
KMD1 242142Z 36005KT 23/01 A3004 RMK A01 T02310013  RH  024%=      5-min Rain = 0
KMD1 242143Z 33005KT 23/01 A3004 RMK A01 T02310013  RH  024%=      5-min Rain = 0
KMD1 242144Z 01006KT 23/01 A3004 RMK A01 T02300012  RH  024%=      5-min Rain = 0
KMD1 242145Z 02006KT 23/01 A3004 RMK A01 T02290008  RH  023%=      5-min Rain = 0
KMD1 242146Z 03006KT 23/01 A3004 RMK A01 T02270011  RH  024%=      5-min Rain = 0
KMD1 242147Z 02006KT 23/01 A3004 RMK A01 T02270014  RH  024%=      5-min Rain = 0
KMD1 242148Z 02007KT 23/02 A3004 RMK A01 T02290016  RH  025%=      5-min Rain = 0
KMD1 242149Z 02005KT 23/01 A3004 RMK A01 T02300013  RH  024%=      5-min Rain = 0
KMD1 242150Z 01004KT 23/01 A3004 RMK A01 T02310013  RH  024%=      5-min Rain = 0
KMD1 242151Z 01004KT 23/02 A3004 RMK A01 T02310015  RH  024%=      5-min Rain = 0
KMD1 242152Z 33008KT 23/01 A3004 RMK A01 T02320012  RH  023%=      5-min Rain = 0
KMD1 242153Z 34007KT 23/01 A3004 RMK A01 T02310011  RH  023%=      5-min Rain = 0
KMD1 242154Z 33004KT 23/01 A3004 RMK A01 T02290009  RH  023%=      5-min Rain = 0
KMD1 242155Z 33004KT 23/01 A3004 RMK A01 T02280008  RH  023%=      5-min Rain = 0
KMD1 242156Z 31003KT 23/01 A3004 RMK A01 T02280008  RH  023%=      5-min Rain = 0
KMD1 242157Z 34003KT 23/01 A3004 RMK A01 T02280010  RH  024%=      5-min Rain = 0
KMD1 242158Z 06007KT 23/01 A3004 RMK A01 T02300011  RH  024%=      5-min Rain = 0
KMD1 242159Z 35006KT 23/02 A3004 RMK A01 T02300015  RH  024%=      5-min Rain = 0
KMD1 242200Z 00007KT 23/01 A3004 RMK A01 T02310013  RH  024%=      5-min Rain = 0
KMD1 242201Z 00007KT 23/01 A3004 RMK A01 T02290014  RH  024%=      5-min Rain = 0
KMD1 242202Z 00008KT 23/02 A3004 RMK A01 T02290015  RH  024%=      5-min Rain = 0
KMD1 242203Z 01007KT 23/01 A3004 RMK A01 T02280013  RH  024%=      5-min Rain = 0
KMD1 242204Z 04004KT 23/01 A3004 RMK A01 T02270013  RH  024%=      5-min Rain = 0
KMD1 242205Z 03006KT 23/01 A3004 RMK A01 T02260010  RH  024%=      5-min Rain = 0
KMD1 242206Z 01007KT 23/02 A3004 RMK A01 T02270019  RH  025%=      5-min Rain = 0
KMD1 242207Z 02005KT 23/01 A3004 RMK A01 T02290011  RH  024%=      5-min Rain = 0
KMD1 242208Z 01007KT 23/01 A3004 RMK A01 T02280010  RH  024%=      5-min Rain = 0
KMD1 242209Z 02006KT 23/01 A3004 RMK A01 T02260009  RH  024%=      5-min Rain = 0
KMD1 242210Z 01003KT 23/00 A3004 RMK A01 T02250004  RH  023%=      5-min Rain = 0
KMD1 242211Z 36004KT 23/01 A3004 RMK A01 T02250011  RH  024%=      5-min Rain = 0
KMD1 242212Z 01007KT 23/02 A3004 RMK A01 T02280018  RH  025%=      5-min Rain = 0
KMD1 242213Z 00009KT 23/02 A3004 RMK A01 T02300016  RH  024%=      5-min Rain = 0
KMD1 242214Z 36008KT 23/01 A3004 RMK A01 T02290013  RH  024%=      5-min Rain = 0
KMD1 242215Z 36007KT 23/01 A3004 RMK A01 T02280012  RH  024%=      5-min Rain = 0
KMD1 242216Z 36007KT 23/01 A3004 RMK A01 T02270012  RH  024%=      5-min Rain = 0
KMD1 242217Z 35005KT 23/01 A3004 RMK A01 T02270011  RH  024%=      5-min Rain = 0
KMD1 242218Z 00006KT 23/01 A3004 RMK A01 T02270011  RH  024%=      5-min Rain = 0
KMD1 242219Z 34004KT 23/01 A3004 RMK A01 T02270010  RH  024%=      5-min Rain = 0
KMD1 242220Z 36004KT 23/01 A3004 RMK A01 T02270012  RH  024%=      5-min Rain = 0
KMD1 242221Z 00005KT 23/01 A3004 RMK A01 T02280013  RH  024%=      5-min Rain = 0
KMD1 242222Z 36007KT 23/01 A3004 RMK A01 T02280011  RH  024%=      5-min Rain = 0
KMD1 242223Z 36006KT 23/01 A3004 RMK A01 T02280013  RH  024%=      5-min Rain = 0
KMD1 242224Z 02004KT 23/01 A3004 RMK A01 T02280011  RH  024%=      5-min Rain = 0
KMD1 242225Z 02008KT 23/02 A3004 RMK A01 T02270015  RH  025%=      5-min Rain = 0
KMD1 242226Z 01007KT 23/02 A3004 RMK A01 T02280016  RH  025%=      5-min Rain = 0
KMD1 242227Z 35008KT 23/02 A3004 RMK A01 T02290018  RH  025%=      5-min Rain = 0
KMD1 242228Z 01007KT 23/02 A3004 RMK A01 T02300016  RH  024%=      5-min Rain = 0
KMD1 242229Z 00007KT 23/01 A3004 RMK A01 T02290012  RH  024%=      5-min Rain = 0
KMD1 242230Z 35008KT 23/02 A3004 RMK A01 T02290017  RH  025%=      5-min Rain = 0
KMD1 242231Z 00006KT 23/02 A3004 RMK A01 T02300017  RH  025%=      5-min Rain = 0
KMD1 242232Z 35004KT 23/01 A3004 RMK A01 T02290011  RH  024%=      5-min Rain = 0
KMD1 242233Z 35004KT 23/01 A3004 RMK A01 T02270009  RH  024%=      5-min Rain = 0
KMD1 242234Z 01006KT 23/01 A3004 RMK A01 T02270014  RH  024%=      5-min Rain = 0
KMD1 242235Z 02009KT 23/01 A3004 RMK A01 T02280013  RH  024%=      5-min Rain = 0
KMD1 242236Z 02007KT 23/01 A3004 RMK A01 T02270010  RH  024%=      5-min Rain = 0
KMD1 242237Z 02007KT 23/02 A3004 RMK A01 T02260016  RH  025%=      5-min Rain = 0
KMD1 242238Z 01006KT 23/01 A3004 RMK A01 T02270011  RH  024%=      5-min Rain = 0
KMD1 242239Z 36009KT 23/01 A3004 RMK A01 T02260012  RH  024%=      5-min Rain = 0
KMD1 242240Z 01007KT 23/01 A3004 RMK A01 T02270011  RH  024%=      5-min Rain = 0
KMD1 242241Z 01007KT 23/01 A3004 RMK A01 T02250009  RH  024%=      5-min Rain = 0
KMD1 242242Z 36006KT 23/01 A3004 RMK A01 T02250010  RH  024%=      5-min Rain = 0
KMD1 242243Z 35006KT 23/01 A3004 RMK A01 T02250012  RH  024%=      5-min Rain = 0
KMD1 242244Z 36007KT 23/01 A3003 RMK A01 T02270012  RH  024%=      5-min Rain = 0
KMD1 242245Z 00006KT 23/01 A3004 RMK A01 T02260008  RH  024%=      5-min Rain = 0
KMD1 242246Z 01006KT 23/01 A3004 RMK A01 T02250008  RH  024%=      5-min Rain = 0
KMD1 242247Z 00006KT 23/01 A3003 RMK A01 T02250010  RH  024%=      5-min Rain = 0
KMD1 242248Z 00008KT 23/01 A3003 RMK A01 T02250011  RH  024%=      5-min Rain = 0
KMD1 242249Z 02008KT 23/01 A3003 RMK A01 T02260010  RH  024%=      5-min Rain = 0
KMD1 242250Z 03007KT 23/01 A3003 RMK A01 T02270011  RH  024%=      5-min Rain = 0
KMD1 242251Z 02006KT 23/01 A3003 RMK A01 T02260009  RH  024%=      5-min Rain = 0
KMD1 242252Z 01005KT 23/01 A3003 RMK A01 T02250007  RH  024%=      5-min Rain = 0
KMD1 242253Z 01005KT 22/01 A3003 RMK A01 T02240007  RH  024%=      5-min Rain = 0
KMD1 242254Z 03004KT 22/01 A3003 RMK A01 T02240010  RH  024%=      5-min Rain = 0
KMD1 242255Z 03004KT 23/01 A3003 RMK A01 T02250012  RH  024%=      5-min Rain = 0
KMD1 242256Z 01006KT 23/02 A3003 RMK A01 T02260018  RH  025%=      5-min Rain = 0
KMD1 242257Z 01008KT 23/01 A3003 RMK A01 T02270012  RH  024%=      5-min Rain = 0
KMD1 242258Z 01009KT 23/01 A3003 RMK A01 T02270013  RH  024%=      5-min Rain = 0
KMD1 242259Z 02009KT 23/02 A3003 RMK A01 T02260015  RH  025%=      5-min Rain = 0
KMD1 242300Z 02008KT 23/01 A3003 RMK A01 T02260011  RH  024%=      5-min Rain = 0
KMD1 242301Z 01008KT 23/01 A3003 RMK A01 T02250014  RH  025%=      5-min Rain = 0
KMD1 242302Z 01006KT 23/01 A3003 RMK A01 T02250011  RH  024%=      5-min Rain = 0
KMD1 242303Z 00006KT 23/01 A3003 RMK A01 T02250011  RH  024%=      5-min Rain = 0
KMD1 242304Z 01006KT 22/01 A3003 RMK A01 T02240009  RH  024%=      5-min Rain = 0
KMD1 242305Z 01006KT 22/01 A3004 RMK A01 T02230010  RH  024%=      5-min Rain = 0
KMD1 242306Z 01005KT 22/01 A3004 RMK A01 T02230009  RH  024%=      5-min Rain = 0
KMD1 242307Z 00006KT 22/01 A3004 RMK A01 T02230013  RH  025%=      5-min Rain = 0
KMD1 242308Z 36005KT 22/01 A3004 RMK A01 T02240009  RH  024%=      5-min Rain = 0
KMD1 242309Z 03005KT 22/01 A3004 RMK A01 T02240008  RH  024%=      5-min Rain = 0
KMD1 242310Z 01005KT 22/01 A3004 RMK A01 T02230010  RH  024%=      5-min Rain = 0
KMD1 242311Z 36004KT 22/01 A3004 RMK A01 T02240012  RH  025%=      5-min Rain = 0
KMD1 242312Z 02006KT 22/01 A3004 RMK A01 T02240011  RH  024%=      5-min Rain = 0
KMD1 242313Z 01007KT 23/02 A3004 RMK A01 T02250016  RH  025%=      5-min Rain = 0
KMD1 242314Z 01007KT 23/01 A3004 RMK A01 T02250013  RH  025%=      5-min Rain = 0
KMD1 242315Z 01005KT 22/01 A3004 RMK A01 T02240012  RH  025%=      5-min Rain = 0
KMD1 242316Z 00006KT 22/01 A3004 RMK A01 T02240014  RH  025%=      5-min Rain = 0
KMD1 242317Z 36006KT 22/01 A3004 RMK A01 T02240013  RH  025%=      5-min Rain = 0
KMD1 242318Z 35005KT 22/01 A3004 RMK A01 T02230010  RH  024%=      5-min Rain = 0
KMD1 242319Z 36005KT 22/01 A3004 RMK A01 T02220010  RH  025%=      5-min Rain = 0
KMD1 242320Z 00005KT 22/01 A3004 RMK A01 T02220013  RH  025%=      5-min Rain = 0
KMD1 242321Z 01007KT 22/01 A3004 RMK A01 T02230014  RH  025%=      5-min Rain = 0
KMD1 242322Z 01006KT 22/01 A3004 RMK A01 T02230011  RH  025%=      5-min Rain = 0
KMD1 242323Z 01008KT 22/01 A3004 RMK A01 T02230010  RH  024%=      5-min Rain = 0
KMD1 242324Z 02007KT 22/01 A3004 RMK A01 T02220012  RH  025%=      5-min Rain = 0
KMD1 242325Z 02005KT 22/01 A3004 RMK A01 T02220010  RH  025%=      5-min Rain = 0
KMD1 242326Z 02006KT 22/01 A3004 RMK A01 T02220012  RH  025%=      5-min Rain = 0
KMD1 242327Z 01006KT 22/01 A3004 RMK A01 T02220013  RH  025%=      5-min Rain = 0
KMD1 242328Z 01005KT 22/01 A3004 RMK A01 T02220013  RH  025%=      5-min Rain = 0
KMD1 242329Z 01005KT 22/01 A3004 RMK A01 T02220013  RH  025%=      5-min Rain = 0
KMD1 242330Z 01006KT 22/01 A3004 RMK A01 T02220012  RH  025%=      5-min Rain = 0
KMD1 242331Z 00008KT 22/01 A3004 RMK A01 T02220014  RH  025%=      5-min Rain = 0
KMD1 242332Z 00009KT 22/01 A3004 RMK A01 T02210013  RH  025%=      5-min Rain = 0
KMD1 242333Z 36007KT 22/01 A3004 RMK A01 T02200014  RH  026%=      5-min Rain = 0
KMD1 242334Z 36007KT 22/01 A3004 RMK A01 T02190013  RH  026%=      5-min Rain = 0
KMD1 242335Z 35007KT 22/02 A3004 RMK A01 T02190015  RH  026%=      5-min Rain = 0
KMD1 242336Z 34006KT 22/01 A3004 RMK A01 T02190013  RH  026%=      5-min Rain = 0
KMD1 242337Z 32004KT 22/01 A3004 RMK A01 T02180012  RH  025%=      5-min Rain = 0
KMD1 242338Z 33006KT 22/01 A3004 RMK A01 T02180013  RH  026%=      5-min Rain = 0
KMD1 242339Z 35008KT 22/01 A3004 RMK A01 T02180012  RH  025%=      5-min Rain = 0
KMD1 242340Z 00007KT 22/01 A3004 RMK A01 T02180013  RH  026%=      5-min Rain = 0
KMD1 242341Z 00006KT 22/01 A3004 RMK A01 T02170012  RH  026%=      5-min Rain = 0
KMD1 242342Z 00005KT 22/01 A3004 RMK A01 T02160013  RH  026%=      5-min Rain = 0
KMD1 242343Z 36007KT 22/02 A3004 RMK A01 T02170016  RH  026%=      5-min Rain = 0
KMD1 242344Z 00007KT 22/01 A3004 RMK A01 T02170013  RH  026%=      5-min Rain = 0
KMD1 242345Z 00007KT 22/01 A3004 RMK A01 T02160013  RH  026%=      5-min Rain = 0
KMD1 242346Z 34007KT 22/01 A3004 RMK A01 T02160014  RH  026%=      5-min Rain = 0
KMD1 242347Z 34007KT 22/01 A3004 RMK A01 T02160013  RH  026%=      5-min Rain = 0
KMD1 242348Z 35006KT 22/01 A3004 RMK A01 T02150014  RH  026%=      5-min Rain = 0
KMD1 242349Z 35008KT 21/01 A3004 RMK A01 T02140014  RH  027%=      5-min Rain = 0
KMD1 242350Z 36008KT 21/01 A3004 RMK A01 T02140012  RH  026%=      5-min Rain = 0
KMD1 242351Z 00007KT 21/01 A3004 RMK A01 T02140013  RH  026%=      5-min Rain = 0
KMD1 242352Z 35006KT 21/01 A3004 RMK A01 T02140012  RH  026%=      5-min Rain = 0
KMD1 242353Z 35007KT 21/01 A3004 RMK A01 T02140013  RH  026%=      5-min Rain = 0
KMD1 242354Z 00006KT 21/02 A3004 RMK A01 T02140016  RH  027%=      5-min Rain = 0
KMD1 242355Z 01006KT 21/02 A3004 RMK A01 T02130017  RH  027%=      5-min Rain = 0
KMD1 242356Z 01006KT 21/02 A3004 RMK A01 T02130017  RH  027%=      5-min Rain = 0
KMD1 242357Z 01006KT 21/02 A3004 RMK A01 T02130016  RH  027%=      5-min Rain = 0
KMD1 242358Z 01005KT 21/02 A3004 RMK A01 T02130015  RH  027%=      5-min Rain = 0
KMD1 242359Z 36006KT 21/02 A3005 RMK A01 T02120015  RH  027%=      5-min Rain = 0
KMD1 250000Z 36008KT 21/02 A3005 RMK A01 T02120015  RH  027%=      5-min Rain = 0
KMD1 250001Z 01008KT 21/01 A3005 RMK A01 T02120014  RH  027%=      5-min Rain = 0
KMD1 250002Z 00007KT 21/02 A3005 RMK A01 T02110015  RH  027%=      5-min Rain = 0
KMD1 250003Z 00006KT 21/01 A3005 RMK A01 T02110014  RH  027%=      5-min Rain = 0
KMD1 250004Z 00007KT 21/01 A3005 RMK A01 T02110014  RH  027%=      5-min Rain = 0
KMD1 250005Z 36007KT 21/01 A3005 RMK A01 T02110014  RH  027%=      5-min Rain = 0
KMD1 250006Z 36008KT 21/01 A3005 RMK A01 T02100014  RH  027%=      5-min Rain = 0
KMD1 250007Z 01006KT 21/01 A3005 RMK A01 T02090014  RH  027%=      5-min Rain = 0
KMD1 250008Z 01005KT 21/02 A3005 RMK A01 T02090015  RH  027%=      5-min Rain = 0
KMD1 250009Z 01005KT 21/02 A3005 RMK A01 T02080017  RH  028%=      5-min Rain = 0
KMD1 250010Z 01006KT 21/02 A3005 RMK A01 T02080016  RH  028%=      5-min Rain = 0
KMD1 250011Z 00006KT 21/02 A3005 RMK A01 T02070016  RH  028%=      5-min Rain = 0
KMD1 250012Z 01006KT 21/02 A3005 RMK A01 T02070016  RH  028%=      5-min Rain = 0
KMD1 250013Z 01006KT 21/01 A3005 RMK A01 T02060014  RH  028%=      5-min Rain = 0
KMD1 250014Z 00005KT 21/02 A3005 RMK A01 T02060016  RH  028%=      5-min Rain = 0
KMD1 250015Z 00005KT 21/02 A3005 RMK A01 T02050016  RH  028%=      5-min Rain = 0
KMD1 250016Z 01006KT 20/02 A3005 RMK A01 T02040016  RH  028%=      5-min Rain = 0
KMD1 250017Z 01006KT 20/01 A3005 RMK A01 T02040014  RH  028%=      5-min Rain = 0
KMD1 250018Z 00005KT 20/02 A3005 RMK A01 T02040015  RH  028%=      5-min Rain = 0
KMD1 250019Z 00005KT 20/02 A3005 RMK A01 T02030015  RH  029%=      5-min Rain = 0
KMD1 250020Z 00005KT 20/02 A3005 RMK A01 T02020015  RH  029%=      5-min Rain = 0
KMD1 250021Z 01005KT 20/02 A3005 RMK A01 T02010016  RH  029%=      5-min Rain = 0
KMD1 250022Z 01005KT 20/02 A3005 RMK A01 T02000016  RH  029%=      5-min Rain = 0
KMD1 250023Z 00005KT 20/02 A3005 RMK A01 T01990015  RH  029%=      5-min Rain = 0
KMD1 250024Z 01005KT 20/02 A3005 RMK A01 T01990015  RH  029%=      5-min Rain = 0
KMD1 250025Z 01006KT 20/02 A3005 RMK A01 T01980015  RH  029%=      5-min Rain = 0
KMD1 250026Z 01005KT 20/02 A3005 RMK A01 T01980015  RH  029%=      5-min Rain = 0
KMD1 250027Z 01005KT 20/02 A3005 RMK A01 T01970015  RH  030%=      5-min Rain = 0
KMD1 250028Z 01006KT 20/02 A3005 RMK A01 T01970015  RH  030%=      5-min Rain = 0
KMD1 250029Z 01005KT 20/02 A3005 RMK A01 T01970016  RH  030%=      5-min Rain = 0
KMD1 250030Z 01005KT 20/02 A3005 RMK A01 T01950016  RH  030%=      5-min Rain = 0
KMD1 250031Z 00005KT 19/02 A3005 RMK A01 T01940015  RH  030%=      5-min Rain = 0
KMD1 250032Z 01005KT 19/02 A3005 RMK A01 T01940015  RH  030%=      5-min Rain = 0
KMD1 250033Z 00005KT 19/02 A3005 RMK A01 T01930015  RH  030%=      5-min Rain = 0
KMD1 250034Z 00005KT 19/02 A3005 RMK A01 T01930016  RH  031%=      5-min Rain = 0
KMD1 250035Z 01005KT 19/02 A3005 RMK A01 T01910016  RH  031%=      5-min Rain = 0
KMD1 250036Z 01005KT 19/02 A3005 RMK A01 T01900016  RH  031%=      5-min Rain = 0
KMD1 250037Z 01004KT 19/02 A3005 RMK A01 T01900016  RH  031%=      5-min Rain = 0
KMD1 250038Z 01004KT 19/02 A3005 RMK A01 T01890016  RH  032%=      5-min Rain = 0
KMD1 250039Z 01005KT 19/02 A3006 RMK A01 T01870017  RH  032%=      5-min Rain = 0
KMD1 250040Z 02005KT 19/02 A3006 RMK A01 T01860018  RH  032%=      5-min Rain = 0
KMD1 250041Z 03005KT 18/02 A3006 RMK A01 T01840018  RH  033%=      5-min Rain = 0
KMD1 250042Z 04005KT 18/02 A3006 RMK A01 T01820018  RH  033%=      5-min Rain = 0
KMD1 250043Z 03005KT 18/02 A3006 RMK A01 T01810019  RH  034%=      5-min Rain = 0
KMD1 250044Z 03005KT 18/02 A3006 RMK A01 T01810018  RH  034%=      5-min Rain = 0
KMD1 250045Z 03006KT 18/02 A3006 RMK A01 T01800019  RH  034%=      5-min Rain = 0
KMD1 250046Z 03005KT 18/02 A3006 RMK A01 T01790019  RH  034%=      5-min Rain = 0
KMD1 250047Z 04005KT 18/02 A3006 RMK A01 T01780019  RH  034%=      5-min Rain = 0
KMD1 250048Z 04006KT 18/02 A3006 RMK A01 T01780019  RH  035%=      5-min Rain = 0
KMD1 250049Z 04005KT 18/02 A3006 RMK A01 T01770019  RH  035%=      5-min Rain = 0
KMD1 250050Z 03005KT 18/02 A3006 RMK A01 T01760019  RH  035%=      5-min Rain = 0
KMD1 250051Z 03004KT 18/02 A3006 RMK A01 T01750019  RH  035%=      5-min Rain = 0
KMD1 250052Z 03004KT 18/02 A3007 RMK A01 T01750019  RH  035%=      5-min Rain = 0
KMD1 250053Z 02004KT 17/02 A3007 RMK A01 T01730020  RH  036%=      5-min Rain = 0
KMD1 250054Z 03003KT 17/02 A3007 RMK A01 T01720018  RH  036%=      5-min Rain = 0
KMD1 250055Z 02004KT 17/02 A3007 RMK A01 T01720018  RH  036%=      5-min Rain = 0
KMD1 250056Z 02004KT 17/02 A3007 RMK A01 T01720018  RH  036%=      5-min Rain = 0
KMD1 250057Z 02004KT 17/02 A3007 RMK A01 T01720017  RH  035%=      5-min Rain = 0
KMD1 250058Z 02004KT 17/02 A3007 RMK A01 T01720018  RH  035%=      5-min Rain = 0
KMD1 250059Z 02005KT 17/02 A3007 RMK A01 T01720019  RH  036%=      5-min Rain = 0
KMD1 250100Z 01004KT 17/02 A3007 RMK A01 T01700019  RH  036%=      5-min Rain = 0
KMD1 250101Z 01004KT 17/02 A3007 RMK A01 T01690018  RH  036%=      5-min Rain = 0
KMD1 250102Z 01004KT 17/02 A3007 RMK A01 T01690017  RH  036%=      5-min Rain = 0
KMD1 250103Z 02004KT 17/02 A3007 RMK A01 T01690017  RH  036%=      5-min Rain = 0
KMD1 250104Z 02005KT 17/02 A3007 RMK A01 T01680017  RH  036%=      5-min Rain = 0
KMD1 250105Z 02005KT 17/02 A3007 RMK A01 T01660017  RH  036%=      5-min Rain = 0
KMD1 250106Z 02005KT 17/02 A3007 RMK A01 T01660018  RH  037%=      5-min Rain = 0
KMD1 250107Z 02005KT 17/02 A3007 RMK A01 T01660018  RH  037%=      5-min Rain = 0
KMD1 250108Z 02005KT 17/02 A3007 RMK A01 T01650018  RH  037%=      5-min Rain = 0
KMD1 250109Z 02005KT 16/02 A3007 RMK A01 T01640018  RH  037%=      5-min Rain = 0
KMD1 250110Z 02005KT 16/02 A3007 RMK A01 T01640018  RH  037%=      5-min Rain = 0
KMD1 250111Z 02004KT 16/02 A3007 RMK A01 T01630018  RH  037%=      5-min Rain = 0
KMD1 250112Z 02004KT 16/02 A3007 RMK A01 T01630018  RH  038%=      5-min Rain = 0
KMD1 250113Z 02004KT 16/02 A3007 RMK A01 T01620018  RH  038%=      5-min Rain = 0
KMD1 250114Z 02004KT 16/02 A3007 RMK A01 T01610019  RH  038%=      5-min Rain = 0
KMD1 250115Z 02004KT 16/02 A3007 RMK A01 T01590018  RH  039%=      5-min Rain = 0
KMD1 250116Z 03004KT 16/02 A3007 RMK A01 T01580017  RH  039%=      5-min Rain = 0
KMD1 250117Z 03004KT 16/02 A3007 RMK A01 T01590016  RH  038%=      5-min Rain = 0
KMD1 250118Z 03004KT 16/02 A3007 RMK A01 T01600015  RH  037%=      5-min Rain = 0
KMD1 250119Z 03004KT 16/02 A3007 RMK A01 T01600015  RH  037%=      5-min Rain = 0
KMD1 250120Z 02005KT 16/02 A3007 RMK A01 T01600015  RH  037%=      5-min Rain = 0
KMD1 250121Z 03004KT 16/02 A3007 RMK A01 T01600016  RH  038%=      5-min Rain = 0
KMD1 250122Z 03004KT 16/02 A3007 RMK A01 T01590015  RH  038%=      5-min Rain = 0
KMD1 250123Z 02005KT 16/02 A3007 RMK A01 T01590016  RH  038%=      5-min Rain = 0
KMD1 250124Z 02005KT 16/02 A3007 RMK A01 T01580017  RH  038%=      5-min Rain = 0
KMD1 250125Z 02005KT 16/02 A3008 RMK A01 T01570017  RH  039%=      5-min Rain = 0
KMD1 250126Z 02005KT 16/02 A3008 RMK A01 T01550018  RH  040%=      5-min Rain = 0
KMD1 250127Z 02005KT 15/02 A3008 RMK A01 T01530018  RH  040%=      5-min Rain = 0
KMD1 250128Z 02005KT 15/02 A3008 RMK A01 T01520020  RH  041%=      5-min Rain = 0
KMD1 250129Z 02006KT 15/02 A3008 RMK A01 T01510020  RH  041%=      5-min Rain = 0
KMD1 250130Z 02005KT 15/02 A3008 RMK A01 T01500020  RH  041%=      5-min Rain = 0
KMD1 250131Z 02006KT 15/02 A3008 RMK A01 T01500020  RH  041%=      5-min Rain = 0
KMD1 250132Z 02005KT 15/02 A3008 RMK A01 T01500020  RH  041%=      5-min Rain = 0
KMD1 250133Z 02006KT 15/02 A3008 RMK A01 T01500020  RH  041%=      5-min Rain = 0
KMD1 250134Z 01006KT 15/02 A3008 RMK A01 T01500020  RH  041%=      5-min Rain = 0
KMD1 250135Z 02005KT 15/02 A3008 RMK A01 T01500020  RH  041%=      5-min Rain = 0
KMD1 250136Z 02005KT 15/02 A3008 RMK A01 T01490020  RH  041%=      5-min Rain = 0
KMD1 250137Z 01005KT 15/02 A3008 RMK A01 T01490020  RH  042%=      5-min Rain = 0
KMD1 250138Z 01005KT 15/02 A3008 RMK A01 T01480020  RH  042%=      5-min Rain = 0
KMD1 250139Z 01005KT 15/02 A3008 RMK A01 T01480019  RH  042%=      5-min Rain = 0
KMD1 250140Z 01005KT 15/02 A3008 RMK A01 T01470020  RH  042%=      5-min Rain = 0
KMD1 250141Z 02005KT 15/02 A3008 RMK A01 T01460020  RH  042%=      5-min Rain = 0
KMD1 250142Z 02005KT 15/02 A3008 RMK A01 T01450021  RH  043%=      5-min Rain = 0
KMD1 250143Z 01006KT 14/02 A3008 RMK A01 T01440021  RH  043%=      5-min Rain = 0
KMD1 250144Z 01006KT 14/02 A3008 RMK A01 T01420021  RH  044%=      5-min Rain = 0
KMD1 250145Z 01006KT 14/02 A3008 RMK A01 T01420021  RH  044%=      5-min Rain = 0
KMD1 250146Z 01006KT 14/02 A3008 RMK A01 T01420022  RH  044%=      5-min Rain = 0
KMD1 250147Z 01006KT 14/02 A3008 RMK A01 T01400022  RH  045%=      5-min Rain = 0
KMD1 250148Z 01006KT 14/02 A3008 RMK A01 T01400022  RH  045%=      5-min Rain = 0
KMD1 250149Z 01006KT 14/02 A3009 RMK A01 T01400021  RH  045%=      5-min Rain = 0
KMD1 250150Z 02006KT 14/02 A3009 RMK A01 T01410021  RH  044%=      5-min Rain = 0
KMD1 250151Z 02007KT 14/02 A3009 RMK A01 T01400022  RH  045%=      5-min Rain = 0
KMD1 250152Z 02006KT 14/02 A3009 RMK A01 T01400021  RH  045%=      5-min Rain = 0
KMD1 250153Z 02007KT 14/02 A3009 RMK A01 T01400020  RH  044%=      5-min Rain = 0
KMD1 250154Z 02006KT 14/02 A3009 RMK A01 T01410020  RH  044%=      5-min Rain = 0
KMD1 250155Z 02006KT 14/02 A3009 RMK A01 T01420020  RH  044%=      5-min Rain = 0
KMD1 250156Z 02007KT 14/02 A3009 RMK A01 T01420021  RH  044%=      5-min Rain = 0
KMD1 250157Z 02007KT 14/02 A3009 RMK A01 T01410020  RH  044%=      5-min Rain = 0
KMD1 250158Z 02007KT 14/02 A3009 RMK A01 T01410020  RH  044%=      5-min Rain = 0
KMD1 250159Z 02007KT 14/02 A3009 RMK A01 T01410021  RH  044%=      5-min Rain = 0
KMD1 250200Z 02006KT 14/02 A3009 RMK A01 T01410020  RH  044%=      5-min Rain = 0
KMD1 250201Z 02006KT 14/02 A3009 RMK A01 T01410021  RH  044%=      5-min Rain = 0
KMD1 250202Z 02006KT 14/02 A3009 RMK A01 T01400020  RH  044%=      5-min Rain = 0
KMD1 250203Z 02006KT 14/02 A3009 RMK A01 T01400021  RH  045%=      5-min Rain = 0
KMD1 250204Z 02006KT 14/02 A3009 RMK A01 T01400021  RH  045%=      5-min Rain = 0
KMD1 250205Z 02007KT 14/02 A3009 RMK A01 T01400021  RH  045%=      5-min Rain = 0
KMD1 250206Z 03007KT 14/02 A3009 RMK A01 T01390021  RH  045%=      5-min Rain = 0
KMD1 250207Z 03007KT 14/02 A3009 RMK A01 T01400020  RH  044%=      5-min Rain = 0
KMD1 250208Z 02006KT 14/02 A3009 RMK A01 T01410021  RH  044%=      5-min Rain = 0
KMD1 250209Z 03006KT 14/02 A3009 RMK A01 T01410021  RH  044%=      5-min Rain = 0
KMD1 250210Z 03007KT 14/02 A3009 RMK A01 T01400021  RH  044%=      5-min Rain = 0
KMD1 250211Z 03007KT 14/02 A3009 RMK A01 T01400021  RH  044%=      5-min Rain = 0
KMD1 250212Z 03006KT 14/02 A3009 RMK A01 T01410021  RH  044%=      5-min Rain = 0
KMD1 250213Z 03006KT 14/02 A3009 RMK A01 T01410021  RH  044%=      5-min Rain = 0
KMD1 250214Z 03006KT 14/02 A3009 RMK A01 T01400021  RH  045%=      5-min Rain = 0
KMD1 250215Z 02006KT 14/02 A3009 RMK A01 T01400021  RH  044%=      5-min Rain = 0
KMD1 250216Z 03007KT 14/02 A3009 RMK A01 T01410021  RH  044%=      5-min Rain = 0
KMD1 250217Z 03007KT 14/02 A3009 RMK A01 T01410020  RH  044%=      5-min Rain = 0
KMD1 250218Z 03007KT 14/02 A3009 RMK A01 T01410021  RH  044%=      5-min Rain = 0
KMD1 250219Z 03007KT 14/02 A3009 RMK A01 T01410021  RH  044%=      5-min Rain = 0
KMD1 250220Z 03006KT 14/02 A3009 RMK A01 T01420021  RH  044%=      5-min Rain = 0
KMD1 250221Z 03006KT 14/02 A3009 RMK A01 T01420021  RH  044%=      5-min Rain = 0
KMD1 250222Z 03007KT 14/02 A3009 RMK A01 T01410021  RH  044%=      5-min Rain = 0
KMD1 250223Z 04006KT 14/02 A3009 RMK A01 T01420021  RH  044%=      5-min Rain = 0
KMD1 250224Z 03007KT 14/02 A3009 RMK A01 T01420021  RH  044%=      5-min Rain = 0
KMD1 250225Z 03007KT 14/02 A3009 RMK A01 T01420021  RH  044%=      5-min Rain = 0
KMD1 250226Z 03007KT 14/02 A301 RMK A01 T01420021  RH  044%=      5-min Rain = 0
KMD1 250227Z 03007KT 14/02 A301 RMK A01 T01430021  RH  044%=      5-min Rain = 0
KMD1 250228Z 03006KT 14/02 A301 RMK A01 T01430022  RH  044%=      5-min Rain = 0
KMD1 250229Z 03007KT 14/02 A301 RMK A01 T01430022  RH  044%=      5-min Rain = 0
KMD1 250230Z 03008KT 14/02 A301 RMK A01 T01430021  RH  044%=      5-min Rain = 0
KMD1 250231Z 02008KT 15/02 A301 RMK A01 T01450021  RH  043%=      5-min Rain = 0
KMD1 250232Z 03008KT 15/02 A301 RMK A01 T01450021  RH  043%=      5-min Rain = 0
KMD1 250233Z 03008KT 15/02 A301 RMK A01 T01460021  RH  043%=      5-min Rain = 0
KMD1 250234Z 03008KT 15/02 A301 RMK A01 T01460021  RH  043%=      5-min Rain = 0
KMD1 250235Z 03008KT 15/02 A301 RMK A01 T01450021  RH  043%=      5-min Rain = 0
KMD1 250236Z 03008KT 15/02 A301 RMK A01 T01450021  RH  043%=      5-min Rain = 0
KMD1 250237Z 03010KT 15/02 A301 RMK A01 T01450021  RH  043%=      5-min Rain = 0
KMD1 250238Z 03008KT 15/02 A301 RMK A01 T01460021  RH  043%=      5-min Rain = 0
KMD1 250239Z 03008KT 15/02 A301 RMK A01 T01460021  RH  043%=      5-min Rain = 0
KMD1 250240Z 03007KT 15/02 A301 RMK A01 T01460022  RH  043%=      5-min Rain = 0
KMD1 250241Z 03008KT 15/02 A301 RMK A01 T01450022  RH  043%=      5-min Rain = 0
KMD1 250242Z 03007KT 14/02 A301 RMK A01 T01440022  RH  044%=      5-min Rain = 0
KMD1 250243Z 03008KT 14/02 A301 RMK A01 T01430021  RH  044%=      5-min Rain = 0
KMD1 250244Z 03008KT 14/02 A301 RMK A01 T01430021  RH  044%=      5-min Rain = 0
KMD1 250245Z 03007KT 14/02 A301 RMK A01 T01430021  RH  044%=      5-min Rain = 0
KMD1 250246Z 03007KT 14/02 A301 RMK A01 T01430021  RH  044%=      5-min Rain = 0
KMD1 250247Z 03007KT 14/02 A301 RMK A01 T01430020  RH  044%=      5-min Rain = 0
KMD1 250248Z 03007KT 14/02 A301 RMK A01 T01430021  RH  044%=      5-min Rain = 0
KMD1 250249Z 03006KT 14/02 A301 RMK A01 T01410021  RH  044%=      5-min Rain = 0
KMD1 250250Z 03006KT 14/02 A301 RMK A01 T01410021  RH  044%=      5-min Rain = 0
KMD1 250251Z 03006KT 14/02 A301 RMK A01 T01400021  RH  045%=      5-min Rain = 0
KMD1 250252Z 03006KT 14/02 A301 RMK A01 T01390021  RH  045%=      5-min Rain = 0
KMD1 250253Z 03006KT 14/02 A301 RMK A01 T01390022  RH  045%=      5-min Rain = 0
KMD1 250254Z 03006KT 14/02 A301 RMK A01 T01380021  RH  045%=      5-min Rain = 0
KMD1 250255Z 03007KT 14/02 A301 RMK A01 T01380021  RH  045%=      5-min Rain = 0
KMD1 250256Z 03006KT 14/02 A301 RMK A01 T01370021  RH  045%=      5-min Rain = 0
KMD1 250257Z 02007KT 14/02 A301 RMK A01 T01380020  RH  045%=      5-min Rain = 0
KMD1 250258Z 03006KT 14/02 A301 RMK A01 T01380020  RH  045%=      5-min Rain = 0
KMD1 250259Z 03006KT 14/02 A301 RMK A01 T01380021  RH  045%=      5-min Rain = 0
KMD1 250300Z 03005KT 14/02 A301 RMK A01 T01370021  RH  046%=      5-min Rain = 0
KMD1 250301Z 04007KT 14/02 A301 RMK A01 T01360021  RH  046%=      5-min Rain = 0
KMD1 250302Z 04005KT 14/02 A301 RMK A01 T01370021  RH  045%=      5-min Rain = 0
KMD1 250303Z 04004KT 14/02 A301 RMK A01 T01370021  RH  046%=      5-min Rain = 0
KMD1 250304Z 04005KT 14/02 A3011 RMK A01 T01360022  RH  046%=      5-min Rain = 0
KMD1 250305Z 05005KT 14/02 A3011 RMK A01 T01360021  RH  046%=      5-min Rain = 0
KMD1 250306Z 05006KT 14/02 A3011 RMK A01 T01360021  RH  046%=      5-min Rain = 0
KMD1 250307Z 05005KT 14/02 A3011 RMK A01 T01370021  RH  045%=      5-min Rain = 0
KMD1 250308Z 05005KT 14/02 A3011 RMK A01 T01380021  RH  045%=      5-min Rain = 0
KMD1 250309Z 05005KT 14/02 A3011 RMK A01 T01380021  RH  045%=      5-min Rain = 0
KMD1 250310Z 06006KT 14/02 A3011 RMK A01 T01380021  RH  045%=      5-min Rain = 0
KMD1 250311Z 06005KT 14/02 A3011 RMK A01 T01380021  RH  045%=      5-min Rain = 0
KMD1 250312Z 06005KT 14/02 A3011 RMK A01 T01380021  RH  045%=      5-min Rain = 0
KMD1 250313Z 06005KT 14/02 A3011 RMK A01 T01380021  RH  045%=      5-min Rain = 0
KMD1 250314Z 06005KT 14/02 A3011 RMK A01 T01370021  RH  045%=      5-min Rain = 0
KMD1 250315Z 06005KT 14/02 A3011 RMK A01 T01360021  RH  046%=      5-min Rain = 0
KMD1 250316Z 06005KT 14/02 A3011 RMK A01 T01360022  RH  046%=      5-min Rain = 0
KMD1 250317Z 07004KT 14/02 A3011 RMK A01 T01360021  RH  046%=      5-min Rain = 0
KMD1 250318Z 07005KT 14/02 A3011 RMK A01 T01360022  RH  046%=      5-min Rain = 0
KMD1 250319Z 08005KT 13/02 A3011 RMK A01 T01340021  RH  046%=      5-min Rain = 0
KMD1 250320Z 08006KT 13/02 A3011 RMK A01 T01340022  RH  047%=      5-min Rain = 0
KMD1 250321Z 08006KT 13/02 A3011 RMK A01 T01320021  RH  047%=      5-min Rain = 0
KMD1 250322Z 07006KT 13/02 A3011 RMK A01 T01310021  RH  047%=      5-min Rain = 0
KMD1 250323Z 08005KT 13/02 A3012 RMK A01 T01310021  RH  047%=      5-min Rain = 0
KMD1 250324Z 08005KT 13/02 A3012 RMK A01 T01300021  RH  047%=      5-min Rain = 0
KMD1 250325Z 08004KT 13/02 A3012 RMK A01 T01300021  RH  047%=      5-min Rain = 0
KMD1 250326Z 08005KT 13/02 A3012 RMK A01 T01300021  RH  047%=      5-min Rain = 0
KMD1 250327Z 08004KT 13/02 A3012 RMK A01 T01300021  RH  048%=      5-min Rain = 0
KMD1 250328Z 08005KT 13/02 A3012 RMK A01 T01280021  RH  048%=      5-min Rain = 0
KMD1 250329Z 08005KT 13/02 A3012 RMK A01 T01280021  RH  048%=      5-min Rain = 0
KMD1 250330Z 07005KT 13/02 A3012 RMK A01 T01290021  RH  048%=      5-min Rain = 0
KMD1 250331Z 07005KT 13/02 A3012 RMK A01 T01290021  RH  048%=      5-min Rain = 0
KMD1 250332Z 06005KT 13/02 A3012 RMK A01 T01290021  RH  048%=      5-min Rain = 0
KMD1 250333Z 05005KT 13/02 A3012 RMK A01 T01290021  RH  048%=      5-min Rain = 0
KMD1 250334Z 05005KT 13/02 A3012 RMK A01 T01290021  RH  048%=      5-min Rain = 0
KMD1 250335Z 05005KT 13/02 A3012 RMK A01 T01290021  RH  048%=      5-min Rain = 0
KMD1 250336Z 04007KT 13/02 A3012 RMK A01 T01290021  RH  048%=      5-min Rain = 0
KMD1 250337Z 04007KT 13/02 A3012 RMK A01 T01310022  RH  047%=      5-min Rain = 0
KMD1 250338Z 04007KT 13/02 A3012 RMK A01 T01310021  RH  047%=      5-min Rain = 0
KMD1 250339Z 04007KT 13/02 A3012 RMK A01 T01310021  RH  047%=      5-min Rain = 0
KMD1 250340Z 04007KT 13/02 A3012 RMK A01 T01310022  RH  047%=      5-min Rain = 0
KMD1 250341Z 04007KT 13/02 A3012 RMK A01 T01320022  RH  047%=      5-min Rain = 0
KMD1 250342Z 04007KT 13/02 A3012 RMK A01 T01310022  RH  048%=      5-min Rain = 0
KMD1 250343Z 03006KT 13/02 A3012 RMK A01 T01300022  RH  048%=      5-min Rain = 0
KMD1 250344Z 04007KT 13/02 A3012 RMK A01 T01300022  RH  048%=      5-min Rain = 0
KMD1 250345Z 04007KT 13/02 A3012 RMK A01 T01300022  RH  048%=      5-min Rain = 0
KMD1 250346Z 04007KT 13/02 A3012 RMK A01 T01300022  RH  048%=      5-min Rain = 0
KMD1 250347Z 04007KT 13/02 A3012 RMK A01 T01300022  RH  048%=      5-min Rain = 0
KMD1 250348Z 04006KT 13/02 A3012 RMK A01 T01290023  RH  048%=      5-min Rain = 0
KMD1 250349Z 04007KT 13/02 A3012 RMK A01 T01290023  RH  048%=      5-min Rain = 0
KMD1 250350Z 03007KT 13/02 A3012 RMK A01 T01280022  RH  049%=      5-min Rain = 0
KMD1 250351Z 04007KT 13/02 A3013 RMK A01 T01280023  RH  049%=      5-min Rain = 0
KMD1 250352Z 04007KT 13/02 A3013 RMK A01 T01280023  RH  049%=      5-min Rain = 0
KMD1 250353Z 04007KT 13/02 A3013 RMK A01 T01280022  RH  049%=      5-min Rain = 0
KMD1 250354Z 05007KT 13/02 A3013 RMK A01 T01270022  RH  049%=      5-min Rain = 0
KMD1 250355Z 05006KT 13/02 A3013 RMK A01 T01270022  RH  049%=      5-min Rain = 0
KMD1 250356Z 06006KT 13/02 A3013 RMK A01 T01270022  RH  049%=      5-min Rain = 0
KMD1 250357Z 06006KT 13/02 A3013 RMK A01 T01270022  RH  049%=      5-min Rain = 0
KMD1 250358Z 07005KT 13/02 A3013 RMK A01 T01270022  RH  049%=      5-min Rain = 0
KMD1 250359Z 09005KT 13/02 A3013 RMK A01 T01260022  RH  049%=      5-min Rain = 0
KMD1 250400Z 09005KT 13/02 A3013 RMK A01 T01250022  RH  050%=      5-min Rain = 0
KMD1 250401Z 09005KT 12/02 A3013 RMK A01 T01240022  RH  050%=      5-min Rain = 0
KMD1 250402Z 09005KT 12/02 A3013 RMK A01 T01230021  RH  050%=      5-min Rain = 0
KMD1 250403Z 10005KT 12/02 A3013 RMK A01 T01210022  RH  051%=      5-min Rain = 0
KMD1 250404Z 09005KT 12/02 A3013 RMK A01 T01190022  RH  051%=      5-min Rain = 0
KMD1 250405Z 09005KT 12/02 A3013 RMK A01 T01180022  RH  052%=      5-min Rain = 0
KMD1 250406Z 09005KT 12/02 A3013 RMK A01 T01180021  RH  052%=      5-min Rain = 0
KMD1 250407Z 09005KT 12/02 A3013 RMK A01 T01190022  RH  052%=      5-min Rain = 0
KMD1 250408Z 08005KT 12/02 A3013 RMK A01 T01190022  RH  051%=      5-min Rain = 0
KMD1 250409Z 08005KT 12/02 A3013 RMK A01 T01190022  RH  051%=      5-min Rain = 0
KMD1 250410Z 07005KT 12/02 A3013 RMK A01 T01200022  RH  051%=      5-min Rain = 0
KMD1 250411Z 07005KT 12/02 A3013 RMK A01 T01210023  RH  051%=      5-min Rain = 0
KMD1 250412Z 08004KT 12/02 A3013 RMK A01 T01210023  RH  051%=      5-min Rain = 0
KMD1 250413Z 07005KT 12/02 A3013 RMK A01 T01200023  RH  051%=      5-min Rain = 0
KMD1 250414Z 07005KT 12/02 A3013 RMK A01 T01200023  RH  051%=      5-min Rain = 0
KMD1 250415Z 07004KT 12/02 A3013 RMK A01 T01200023  RH  052%=      5-min Rain = 0
KMD1 250416Z 08005KT 12/02 A3013 RMK A01 T01190023  RH  052%=      5-min Rain = 0
KMD1 250417Z 08005KT 12/02 A3013 RMK A01 T01180023  RH  052%=      5-min Rain = 0
KMD1 250418Z 07005KT 12/02 A3013 RMK A01 T01170023  RH  052%=      5-min Rain = 0
KMD1 250419Z 07005KT 12/02 A3013 RMK A01 T01170023  RH  053%=      5-min Rain = 0
KMD1 250420Z 07005KT 12/02 A3013 RMK A01 T01170023  RH  053%=      5-min Rain = 0
KMD1 250421Z 07005KT 12/02 A3013 RMK A01 T01160024  RH  053%=      5-min Rain = 0
KMD1 250422Z 08004KT 12/02 A3013 RMK A01 T01160024  RH  053%=      5-min Rain = 0
KMD1 250423Z 08005KT 12/02 A3013 RMK A01 T01160024  RH  053%=      5-min Rain = 0
KMD1 250424Z 07004KT 12/02 A3013 RMK A01 T01150023  RH  053%=      5-min Rain = 0
KMD1 250425Z 07004KT 12/02 A3013 RMK A01 T01150024  RH  053%=      5-min Rain = 0
KMD1 250426Z 08004KT 12/02 A3013 RMK A01 T01150024  RH  053%=      5-min Rain = 0
KMD1 250427Z 08004KT 11/02 A3013 RMK A01 T01140024  RH  054%=      5-min Rain = 0
KMD1 250428Z 09004KT 11/02 A3013 RMK A01 T01140024  RH  054%=      5-min Rain = 0
KMD1 250429Z 09004KT 11/02 A3013 RMK A01 T01130024  RH  054%=      5-min Rain = 0
KMD1 250430Z 09004KT 11/02 A3013 RMK A01 T01130024  RH  054%=      5-min Rain = 0
KMD1 250431Z 08004KT 11/02 A3013 RMK A01 T01120023  RH  054%=      5-min Rain = 0
KMD1 250432Z 08004KT 11/02 A3013 RMK A01 T01110023  RH  055%=      5-min Rain = 0
KMD1 250433Z 08004KT 11/02 A3013 RMK A01 T01100023  RH  055%=      5-min Rain = 0
KMD1 250434Z 08004KT 11/02 A3013 RMK A01 T01100024  RH  055%=      5-min Rain = 0
KMD1 250435Z 08004KT 11/02 A3013 RMK A01 T01100023  RH  055%=      5-min Rain = 0
KMD1 250436Z 07004KT 11/02 A3013 RMK A01 T01110023  RH  055%=      5-min Rain = 0
KMD1 250437Z 07004KT 11/02 A3013 RMK A01 T01120024  RH  055%=      5-min Rain = 0
KMD1 250438Z 07004KT 11/02 A3013 RMK A01 T01120023  RH  054%=      5-min Rain = 0
KMD1 250439Z 07004KT 11/02 A3013 RMK A01 T01120024  RH  054%=      5-min Rain = 0
KMD1 250440Z 08004KT 11/02 A3013 RMK A01 T01120024  RH  054%=      5-min Rain = 0
KMD1 250441Z 07003KT 11/02 A3013 RMK A01 T01120023  RH  054%=      5-min Rain = 0
KMD1 250442Z 08004KT 11/02 A3013 RMK A01 T01110023  RH  055%=      5-min Rain = 0
KMD1 250443Z 08004KT 11/02 A3013 RMK A01 T01110023  RH  055%=      5-min Rain = 0
KMD1 250444Z 08003KT 11/02 A3013 RMK A01 T01110023  RH  055%=      5-min Rain = 0
KMD1 250445Z 07004KT 11/02 A3013 RMK A01 T01110023  RH  055%=      5-min Rain = 0
KMD1 250446Z 07004KT 11/02 A3013 RMK A01 T01100023  RH  055%=      5-min Rain = 0
KMD1 250447Z 07003KT 11/02 A3013 RMK A01 T01100023  RH  055%=      5-min Rain = 0
KMD1 250448Z 07003KT 11/02 A3013 RMK A01 T01100023  RH  055%=      5-min Rain = 0
KMD1 250449Z 07003KT 11/02 A3013 RMK A01 T01090024  RH  056%=      5-min Rain = 0
KMD1 250450Z 07003KT 11/03 A3013 RMK A01 T01080025  RH  056%=      5-min Rain = 0
KMD1 250451Z 06003KT 11/03 A3013 RMK A01 T01080025  RH  057%=      5-min Rain = 0
KMD1 250452Z 06003KT 11/02 A3013 RMK A01 T01080024  RH  056%=      5-min Rain = 0
KMD1 250453Z 06003KT 11/02 A3013 RMK A01 T01080023  RH  056%=      5-min Rain = 0
KMD1 250454Z 06003KT 11/02 A3013 RMK A01 T01080022  RH  055%=      5-min Rain = 0
KMD1 250455Z 06003KT 11/02 A3013 RMK A01 T01080022  RH  055%=      5-min Rain = 0
KMD1 250456Z 06002KT 11/02 A3013 RMK A01 T01090022  RH  055%=      5-min Rain = 0
KMD1 250457Z 05003KT 11/02 A3013 RMK A01 T01090022  RH  055%=      5-min Rain = 0
KMD1 250458Z 05003KT 11/02 A3013 RMK A01 T01080022  RH  055%=      5-min Rain = 0
KMD1 250459Z 06002KT 11/02 A3013 RMK A01 T01090022  RH  055%=      5-min Rain = 0
KMD1 250500Z 06002KT 11/02 A3013 RMK A01 T01090022  RH  055%=      5-min Rain = 0
KMD1 250501Z 06002KT 11/02 A3013 RMK A01 T01090022  RH  055%=      5-min Rain = 0
KMD1 250502Z 06002KT 11/02 A3013 RMK A01 T01090022  RH  055%=      5-min Rain = 0
KMD1 250503Z 06002KT 11/02 A3013 RMK A01 T01080022  RH  055%=      5-min Rain = 0
KMD1 250504Z 05002KT 11/02 A3013 RMK A01 T01080022  RH  055%=      5-min Rain = 0
KMD1 250505Z 05002KT 11/02 A3013 RMK A01 T01080022  RH  055%=      5-min Rain = 0
KMD1 250506Z 05002KT 11/02 A3013 RMK A01 T01080022  RH  055%=      5-min Rain = 0
KMD1 250507Z 05002KT 11/02 A3013 RMK A01 T01070023  RH  056%=      5-min Rain = 0
KMD1 250508Z 04002KT 11/02 A3013 RMK A01 T01060022  RH  056%=      5-min Rain = 0
KMD1 250509Z 03002KT 11/02 A3013 RMK A01 T01060022  RH  056%=      5-min Rain = 0
KMD1 250510Z 03001KT 11/02 A3013 RMK A01 T01060022  RH  056%=      5-min Rain = 0
KMD1 250511Z 04001KT 11/02 A3013 RMK A01 T01060022  RH  056%=      5-min Rain = 0
KMD1 250512Z 04001KT 11/02 A3013 RMK A01 T01060022  RH  056%=      5-min Rain = 0
KMD1 250513Z 05001KT 11/02 A3013 RMK A01 T01070022  RH  056%=      5-min Rain = 0
KMD1 250514Z 05001KT 11/02 A3013 RMK A01 T01050022  RH  056%=      5-min Rain = 0
KMD1 250515Z 05001KT 10/02 A3014 RMK A01 T01040022  RH  057%=      5-min Rain = 0
KMD1 250516Z 05001KT 10/02 A3014 RMK A01 T01030022  RH  057%=      5-min Rain = 0
KMD1 250517Z 05001KT 10/02 A3014 RMK A01 T01030022  RH  057%=      5-min Rain = 0
KMD1 250518Z 05001KT 10/02 A3014 RMK A01 T01030022  RH  057%=      5-min Rain = 0
KMD1 250519Z 05001KT 10/02 A3014 RMK A01 T01040022  RH  057%=      5-min Rain = 0
KMD1 250520Z 04001KT 11/02 A3014 RMK A01 T01050022  RH  057%=      5-min Rain = 0
KMD1 250521Z 03001KT 11/02 A3014 RMK A01 T01050022  RH  056%=      5-min Rain = 0
KMD1 250522Z 03001KT 11/02 A3014 RMK A01 T01050022  RH  056%=      5-min Rain = 0
KMD1 250523Z 02002KT 11/02 A3014 RMK A01 T01050022  RH  057%=      5-min Rain = 0
KMD1 250524Z 02001KT 10/02 A3014 RMK A01 T01040022  RH  057%=      5-min Rain = 0
KMD1 250525Z 02002KT 10/02 A3014 RMK A01 T01020022  RH  057%=      5-min Rain = 0
KMD1 250526Z 01002KT 10/02 A3014 RMK A01 T01000022  RH  059%=      5-min Rain = 0
KMD1 250527Z 01002KT 10/02 A3014 RMK A01 T00970022  RH  060%=      5-min Rain = 0
KMD1 250528Z 01002KT 10/02 A3014 RMK A01 T00950023  RH  061%=      5-min Rain = 0
KMD1 250529Z 02002KT 09/02 A3014 RMK A01 T00940024  RH  062%=      5-min Rain = 0
KMD1 250530Z 02002KT 09/02 A3014 RMK A01 T00940024  RH  062%=      5-min Rain = 0
KMD1 250531Z 02003KT 09/02 A3014 RMK A01 T00930024  RH  062%=      5-min Rain = 0
KMD1 250532Z 02003KT 09/02 A3014 RMK A01 T00930024  RH  062%=      5-min Rain = 0
KMD1 250533Z 02003KT 09/02 A3014 RMK A01 T00910024  RH  063%=      5-min Rain = 0
KMD1 250534Z 02003KT 09/03 A3014 RMK A01 T00900025  RH  063%=      5-min Rain = 0
KMD1 250535Z 02003KT 09/03 A3014 RMK A01 T00900025  RH  064%=      5-min Rain = 0
KMD1 250536Z 03003KT 09/02 A3014 RMK A01 T00900024  RH  063%=      5-min Rain = 0
KMD1 250537Z 03004KT 09/03 A3014 RMK A01 T00900025  RH  063%=      5-min Rain = 0
KMD1 250538Z 03004KT 09/03 A3014 RMK A01 T00900025  RH  064%=      5-min Rain = 0
KMD1 250539Z 04004KT 09/02 A3014 RMK A01 T00870024  RH  065%=      5-min Rain = 0
KMD1 250540Z 04004KT 08/02 A3014 RMK A01 T00840023  RH  065%=      5-min Rain = 0
KMD1 250541Z 04004KT 08/02 A3014 RMK A01 T00820023  RH  066%=      5-min Rain = 0
KMD1 250542Z 04004KT 08/02 A3014 RMK A01 T00810022  RH  067%=      5-min Rain = 0
KMD1 250543Z 04004KT 08/02 A3014 RMK A01 T00800023  RH  067%=      5-min Rain = 0
KMD1 250544Z 04004KT 08/02 A3014 RMK A01 T00800024  RH  068%=      5-min Rain = 0
KMD1 250545Z 04005KT 08/02 A3014 RMK A01 T00800024  RH  068%=      5-min Rain = 0
KMD1 250546Z 04005KT 08/02 A3014 RMK A01 T00810024  RH  067%=      5-min Rain = 0
KMD1 250547Z 04005KT 08/02 A3014 RMK A01 T00820023  RH  066%=      5-min Rain = 0
KMD1 250548Z 04005KT 08/02 A3014 RMK A01 T00830023  RH  066%=      5-min Rain = 0
KMD1 250549Z 04005KT 08/02 A3014 RMK A01 T00830023  RH  066%=      5-min Rain = 0
KMD1 250550Z 04005KT 08/02 A3014 RMK A01 T00840023  RH  065%=      5-min Rain = 0
KMD1 250551Z 04005KT 08/02 A3015 RMK A01 T00840022  RH  065%=      5-min Rain = 0
KMD1 250552Z 03005KT 09/02 A3015 RMK A01 T00850022  RH  065%=      5-min Rain = 0
KMD1 250553Z 03005KT 09/02 A3015 RMK A01 T00850022  RH  065%=      5-min Rain = 0
KMD1 250554Z 03005KT 09/02 A3015 RMK A01 T00860022  RH  064%=      5-min Rain = 0
KMD1 250555Z 03005KT 09/02 A3015 RMK A01 T00860022  RH  064%=      5-min Rain = 0
KMD1 250556Z 03005KT 09/02 A3015 RMK A01 T00860022  RH  064%=      5-min Rain = 0
KMD1 250557Z 04005KT 09/02 A3015 RMK A01 T00850022  RH  064%=      5-min Rain = 0
KMD1 250558Z 04005KT 09/02 A3015 RMK A01 T00850022  RH  064%=      5-min Rain = 0
KMD1 250559Z 04005KT 09/02 A3015 RMK A01 T00850022  RH  064%=      5-min Rain = 0

Page generated in 0.173 seconds.